
<gpx xmlns="http://www.topografix.com/GPX/1/1" xmlns:gpxx="http://www.garmin.com/xmlschemas/GpxExtensions/v3" xmlns:xsi="http://www.w3.org/2001/XMLSchema-instance" version="1.1" creator="Adze - http://kobotsw.com/apps/adze" xsi:schemaLocation="http://www.topografix.com/GPX/1/1 http://www.topografix.com/GPX/1/1/gpx.xsd http://www.garmin.com/xmlschemas/GpxExtensions/v3 http://www.garmin.com/xmlschemas/GpxExtensionsv3.xsd">
    <metadata>
        <name>Untitled Document</name>
        <link href="http://www.garmin.com"></link>
        <time>2018-02-26T04:52:20.289Z</time>
    </metadata>
    <wpt lon="99.681931" lat="12.900961">
        <ele>119.000000</ele>
        <time>2015-01-23T07:08:37Z</time>
        <name>KaengKrachan</name>
        <sym>Lodging</sym>
        <extensions>
            <gpxx:WaypointExtension xmlns:gpxx="http://www.garmin.com/xmlschemas/GpxExtensions/v3">
                <gpxx:DisplayMode>SymbolOnly</gpxx:DisplayMode>
            </gpxx:WaypointExtension>
        </extensions>
    </wpt>
    <wpt lon="99.649082" lat="12.906285">
        <ele>76.000000</ele>
        <time>2015-01-25T04:21:23Z</time>
        <name>Water Sunday</name>
        <sym>Drinking Water</sym>
        <extensions>
            <gpxx:WaypointExtension xmlns:gpxx="http://www.garmin.com/xmlschemas/GpxExtensions/v3">
                <gpxx:DisplayMode>SymbolAndName</gpxx:DisplayMode>
            </gpxx:WaypointExtension>
        </extensions>
    </wpt>
    <trk>
        <name>Sunday</name>
        <extensions>
            <gpxx:TrackExtension xmlns:gpxx="http://www.garmin.com/xmlschemas/GpxExtensions/v3">
                <gpxx:DisplayColor>Green</gpxx:DisplayColor>
            </gpxx:TrackExtension>
        </extensions>
        <trkseg>
            <trkpt lon="99.680535" lat="12.900028">
                <ele>107.320000</ele>
                <time>2015-01-25T03:02:41Z</time>
            </trkpt>
            <trkpt lon="99.680515" lat="12.900032">
                <ele>108.290000</ele>
                <time>2015-01-25T03:02:49Z</time>
            </trkpt>
            <trkpt lon="99.680498" lat="12.900033">
                <ele>108.290000</ele>
                <time>2015-01-25T03:02:50Z</time>
            </trkpt>
            <trkpt lon="99.680477" lat="12.900030">
                <ele>108.290000</ele>
                <time>2015-01-25T03:02:51Z</time>
            </trkpt>
            <trkpt lon="99.679985" lat="12.899912">
                <ele>107.810000</ele>
                <time>2015-01-25T03:03:06Z</time>
            </trkpt>
            <trkpt lon="99.679309" lat="12.899886">
                <ele>110.210000</ele>
                <time>2015-01-25T03:03:24Z</time>
            </trkpt>
            <trkpt lon="99.678612" lat="12.899745">
                <ele>110.690000</ele>
                <time>2015-01-25T03:03:42Z</time>
            </trkpt>
            <trkpt lon="99.678136" lat="12.899538">
                <ele>111.650000</ele>
                <time>2015-01-25T03:03:58Z</time>
            </trkpt>
            <trkpt lon="99.677851" lat="12.899553">
                <ele>112.610000</ele>
                <time>2015-01-25T03:04:13Z</time>
            </trkpt>
            <trkpt lon="99.677809" lat="12.899589">
                <ele>112.610000</ele>
                <time>2015-01-25T03:04:16Z</time>
            </trkpt>
            <trkpt lon="99.677797" lat="12.899620">
                <ele>113.090000</ele>
                <time>2015-01-25T03:04:18Z</time>
            </trkpt>
            <trkpt lon="99.677818" lat="12.899775">
                <ele>113.570000</ele>
                <time>2015-01-25T03:04:30Z</time>
            </trkpt>
            <trkpt lon="99.677846" lat="12.899816">
                <ele>114.050000</ele>
                <time>2015-01-25T03:04:33Z</time>
            </trkpt>
            <trkpt lon="99.677986" lat="12.900086">
                <ele>118.860000</ele>
                <time>2015-01-25T03:04:50Z</time>
            </trkpt>
            <trkpt lon="99.678094" lat="12.900420">
                <ele>122.710000</ele>
                <time>2015-01-25T03:05:08Z</time>
            </trkpt>
            <trkpt lon="99.678237" lat="12.900749">
                <ele>125.590000</ele>
                <time>2015-01-25T03:05:24Z</time>
            </trkpt>
            <trkpt lon="99.678307" lat="12.900870">
                <ele>126.070000</ele>
                <time>2015-01-25T03:05:29Z</time>
            </trkpt>
            <trkpt lon="99.678482" lat="12.900873">
                <ele>125.110000</ele>
                <time>2015-01-25T03:05:34Z</time>
            </trkpt>
            <trkpt lon="99.678884" lat="12.901009">
                <ele>123.190000</ele>
                <time>2015-01-25T03:05:45Z</time>
            </trkpt>
            <trkpt lon="99.678993" lat="12.901109">
                <ele>122.220000</ele>
                <time>2015-01-25T03:05:48Z</time>
            </trkpt>
            <trkpt lon="99.679223" lat="12.901383">
                <ele>120.780000</ele>
                <time>2015-01-25T03:05:56Z</time>
            </trkpt>
            <trkpt lon="99.679293" lat="12.901431">
                <ele>120.780000</ele>
                <time>2015-01-25T03:05:58Z</time>
            </trkpt>
            <trkpt lon="99.679573" lat="12.901525">
                <ele>120.780000</ele>
                <time>2015-01-25T03:06:05Z</time>
            </trkpt>
            <trkpt lon="99.679656" lat="12.901530">
                <ele>120.300000</ele>
                <time>2015-01-25T03:06:07Z</time>
            </trkpt>
            <trkpt lon="99.679833" lat="12.901495">
                <ele>119.340000</ele>
                <time>2015-01-25T03:06:11Z</time>
            </trkpt>
            <trkpt lon="99.679929" lat="12.901475">
                <ele>118.380000</ele>
                <time>2015-01-25T03:06:13Z</time>
            </trkpt>
            <trkpt lon="99.680214" lat="12.901603">
                <ele>113.570000</ele>
                <time>2015-01-25T03:06:22Z</time>
            </trkpt>
            <trkpt lon="99.680325" lat="12.901921">
                <ele>111.650000</ele>
                <time>2015-01-25T03:06:32Z</time>
            </trkpt>
            <trkpt lon="99.680140" lat="12.902395">
                <ele>109.250000</ele>
                <time>2015-01-25T03:06:43Z</time>
            </trkpt>
            <trkpt lon="99.680079" lat="12.902517">
                <ele>108.770000</ele>
                <time>2015-01-25T03:06:46Z</time>
            </trkpt>
            <trkpt lon="99.679698" lat="12.903121">
                <ele>107.320000</ele>
                <time>2015-01-25T03:07:00Z</time>
            </trkpt>
            <trkpt lon="99.679608" lat="12.903454">
                <ele>105.880000</ele>
                <time>2015-01-25T03:07:08Z</time>
            </trkpt>
            <trkpt lon="99.679774" lat="12.903777">
                <ele>102.520000</ele>
                <time>2015-01-25T03:07:16Z</time>
            </trkpt>
            <trkpt lon="99.679814" lat="12.903900">
                <ele>101.080000</ele>
                <time>2015-01-25T03:07:21Z</time>
            </trkpt>
            <trkpt lon="99.679772" lat="12.904201">
                <ele>99.630000</ele>
                <time>2015-01-25T03:07:28Z</time>
            </trkpt>
            <trkpt lon="99.679729" lat="12.904382">
                <ele>99.150000</ele>
                <time>2015-01-25T03:07:32Z</time>
            </trkpt>
            <trkpt lon="99.679707" lat="12.904573">
                <ele>97.230000</ele>
                <time>2015-01-25T03:07:37Z</time>
            </trkpt>
            <trkpt lon="99.679751" lat="12.904647">
                <ele>96.750000</ele>
                <time>2015-01-25T03:07:39Z</time>
            </trkpt>
            <trkpt lon="99.679843" lat="12.905212">
                <ele>97.710000</ele>
                <time>2015-01-25T03:07:52Z</time>
            </trkpt>
            <trkpt lon="99.679846" lat="12.905432">
                <ele>98.670000</ele>
                <time>2015-01-25T03:07:57Z</time>
            </trkpt>
            <trkpt lon="99.679967" lat="12.906015">
                <ele>103.000000</ele>
                <time>2015-01-25T03:08:11Z</time>
            </trkpt>
            <trkpt lon="99.679992" lat="12.906361">
                <ele>104.440000</ele>
                <time>2015-01-25T03:08:25Z</time>
            </trkpt>
            <trkpt lon="99.680154" lat="12.906742">
                <ele>105.880000</ele>
                <time>2015-01-25T03:08:39Z</time>
            </trkpt>
            <trkpt lon="99.680207" lat="12.906850">
                <ele>107.810000</ele>
                <time>2015-01-25T03:08:46Z</time>
            </trkpt>
            <trkpt lon="99.680226" lat="12.906868">
                <ele>107.810000</ele>
                <time>2015-01-25T03:08:47Z</time>
            </trkpt>
            <trkpt lon="99.680250" lat="12.906884">
                <ele>107.320000</ele>
                <time>2015-01-25T03:08:48Z</time>
            </trkpt>
            <trkpt lon="99.680278" lat="12.906898">
                <ele>107.810000</ele>
                <time>2015-01-25T03:08:49Z</time>
            </trkpt>
            <trkpt lon="99.680311" lat="12.906908">
                <ele>107.320000</ele>
                <time>2015-01-25T03:08:50Z</time>
            </trkpt>
            <trkpt lon="99.680344" lat="12.906915">
                <ele>107.320000</ele>
                <time>2015-01-25T03:08:51Z</time>
            </trkpt>
            <trkpt lon="99.680378" lat="12.906919">
                <ele>107.320000</ele>
                <time>2015-01-25T03:08:52Z</time>
            </trkpt>
            <trkpt lon="99.680411" lat="12.906926">
                <ele>106.840000</ele>
                <time>2015-01-25T03:08:53Z</time>
            </trkpt>
            <trkpt lon="99.680444" lat="12.906936">
                <ele>106.840000</ele>
                <time>2015-01-25T03:08:54Z</time>
            </trkpt>
            <trkpt lon="99.680478" lat="12.906945">
                <ele>106.840000</ele>
                <time>2015-01-25T03:08:55Z</time>
            </trkpt>
            <trkpt lon="99.681027" lat="12.907140">
                <ele>107.320000</ele>
                <time>2015-01-25T03:09:10Z</time>
            </trkpt>
            <trkpt lon="99.681065" lat="12.907165">
                <ele>107.320000</ele>
                <time>2015-01-25T03:09:11Z</time>
            </trkpt>
            <trkpt lon="99.681174" lat="12.907239">
                <ele>107.320000</ele>
                <time>2015-01-25T03:09:14Z</time>
            </trkpt>
            <trkpt lon="99.681212" lat="12.907260">
                <ele>106.840000</ele>
                <time>2015-01-25T03:09:15Z</time>
            </trkpt>
            <trkpt lon="99.681250" lat="12.907281">
                <ele>106.840000</ele>
                <time>2015-01-25T03:09:16Z</time>
            </trkpt>
            <trkpt lon="99.681499" lat="12.907417">
                <ele>107.320000</ele>
                <time>2015-01-25T03:09:23Z</time>
            </trkpt>
            <trkpt lon="99.681505" lat="12.907444">
                <ele>107.320000</ele>
                <time>2015-01-25T03:09:24Z</time>
            </trkpt>
            <trkpt lon="99.681495" lat="12.907470">
                <ele>107.810000</ele>
                <time>2015-01-25T03:09:25Z</time>
            </trkpt>
            <trkpt lon="99.681476" lat="12.907483">
                <ele>108.290000</ele>
                <time>2015-01-25T03:09:26Z</time>
            </trkpt>
            <trkpt lon="99.681461" lat="12.907484">
                <ele>108.290000</ele>
                <time>2015-01-25T03:09:27Z</time>
            </trkpt>
            <trkpt lon="99.681447" lat="12.907485">
                <ele>108.770000</ele>
                <time>2015-01-25T03:09:28Z</time>
            </trkpt>
            <trkpt lon="99.681432" lat="12.907487">
                <ele>108.770000</ele>
                <time>2015-01-25T03:09:29Z</time>
            </trkpt>
            <trkpt lon="99.681418" lat="12.907488">
                <ele>109.250000</ele>
                <time>2015-01-25T03:09:30Z</time>
            </trkpt>
            <trkpt lon="99.681403" lat="12.907487">
                <ele>109.250000</ele>
                <time>2015-01-25T03:09:31Z</time>
            </trkpt>
            <trkpt lon="99.681237" lat="12.907622">
                <ele>111.170000</ele>
                <time>2015-01-25T03:09:44Z</time>
            </trkpt>
            <trkpt lon="99.681216" lat="12.907892">
                <ele>114.050000</ele>
                <time>2015-01-25T03:10:00Z</time>
            </trkpt>
            <trkpt lon="99.681227" lat="12.907961">
                <ele>114.050000</ele>
                <time>2015-01-25T03:10:04Z</time>
            </trkpt>
            <trkpt lon="99.681482" lat="12.908073">
                <ele>115.980000</ele>
                <time>2015-01-25T03:10:18Z</time>
            </trkpt>
            <trkpt lon="99.681592" lat="12.908143">
                <ele>116.460000</ele>
                <time>2015-01-25T03:10:22Z</time>
            </trkpt>
            <trkpt lon="99.681597" lat="12.908168">
                <ele>116.460000</ele>
                <time>2015-01-25T03:10:23Z</time>
            </trkpt>
            <trkpt lon="99.681593" lat="12.908196">
                <ele>116.460000</ele>
                <time>2015-01-25T03:10:24Z</time>
            </trkpt>
            <trkpt lon="99.681582" lat="12.908221">
                <ele>116.460000</ele>
                <time>2015-01-25T03:10:25Z</time>
            </trkpt>
            <trkpt lon="99.681571" lat="12.908246">
                <ele>116.460000</ele>
                <time>2015-01-25T03:10:26Z</time>
            </trkpt>
            <trkpt lon="99.681562" lat="12.908270">
                <ele>116.460000</ele>
                <time>2015-01-25T03:10:27Z</time>
            </trkpt>
            <trkpt lon="99.681349" lat="12.908740">
                <ele>115.500000</ele>
                <time>2015-01-25T03:10:42Z</time>
            </trkpt>
            <trkpt lon="99.681354" lat="12.908759">
                <ele>115.500000</ele>
                <time>2015-01-25T03:10:43Z</time>
            </trkpt>
            <trkpt lon="99.681362" lat="12.908776">
                <ele>115.500000</ele>
                <time>2015-01-25T03:10:44Z</time>
            </trkpt>
            <trkpt lon="99.681373" lat="12.908789">
                <ele>115.500000</ele>
                <time>2015-01-25T03:10:45Z</time>
            </trkpt>
            <trkpt lon="99.681387" lat="12.908801">
                <ele>115.500000</ele>
                <time>2015-01-25T03:10:46Z</time>
            </trkpt>
            <trkpt lon="99.681404" lat="12.908814">
                <ele>115.500000</ele>
                <time>2015-01-25T03:10:47Z</time>
            </trkpt>
            <trkpt lon="99.681423" lat="12.908826">
                <ele>115.500000</ele>
                <time>2015-01-25T03:10:48Z</time>
            </trkpt>
            <trkpt lon="99.681444" lat="12.908840">
                <ele>115.980000</ele>
                <time>2015-01-25T03:10:49Z</time>
            </trkpt>
            <trkpt lon="99.681467" lat="12.908858">
                <ele>115.500000</ele>
                <time>2015-01-25T03:10:50Z</time>
            </trkpt>
            <trkpt lon="99.681491" lat="12.908879">
                <ele>115.010000</ele>
                <time>2015-01-25T03:10:51Z</time>
            </trkpt>
            <trkpt lon="99.681513" lat="12.908907">
                <ele>115.010000</ele>
                <time>2015-01-25T03:10:52Z</time>
            </trkpt>
            <trkpt lon="99.681532" lat="12.908946">
                <ele>115.010000</ele>
                <time>2015-01-25T03:10:53Z</time>
            </trkpt>
            <trkpt lon="99.681562" lat="12.908985">
                <ele>114.530000</ele>
                <time>2015-01-25T03:10:54Z</time>
            </trkpt>
            <trkpt lon="99.681602" lat="12.909018">
                <ele>114.050000</ele>
                <time>2015-01-25T03:10:55Z</time>
            </trkpt>
            <trkpt lon="99.681646" lat="12.909044">
                <ele>114.050000</ele>
                <time>2015-01-25T03:10:56Z</time>
            </trkpt>
            <trkpt lon="99.681690" lat="12.909065">
                <ele>113.090000</ele>
                <time>2015-01-25T03:10:57Z</time>
            </trkpt>
            <trkpt lon="99.682463" lat="12.909456">
                <ele>108.290000</ele>
                <time>2015-01-25T03:11:13Z</time>
            </trkpt>
            <trkpt lon="99.683333" lat="12.909888">
                <ele>102.040000</ele>
                <time>2015-01-25T03:11:26Z</time>
            </trkpt>
            <trkpt lon="99.684352" lat="12.910415">
                <ele>97.230000</ele>
                <time>2015-01-25T03:11:39Z</time>
            </trkpt>
            <trkpt lon="99.685248" lat="12.910877">
                <ele>96.270000</ele>
                <time>2015-01-25T03:11:53Z</time>
            </trkpt>
            <trkpt lon="99.686257" lat="12.911397">
                <ele>97.710000</ele>
                <time>2015-01-25T03:12:11Z</time>
            </trkpt>
            <trkpt lon="99.687074" lat="12.911804">
                <ele>97.230000</ele>
                <time>2015-01-25T03:12:29Z</time>
            </trkpt>
            <trkpt lon="99.687998" lat="12.912263">
                <ele>91.940000</ele>
                <time>2015-01-25T03:12:44Z</time>
            </trkpt>
            <trkpt lon="99.689445" lat="12.912978">
                <ele>86.180000</ele>
                <time>2015-01-25T03:13:04Z</time>
            </trkpt>
            <trkpt lon="99.690489" lat="12.913493">
                <ele>85.690000</ele>
                <time>2015-01-25T03:13:21Z</time>
            </trkpt>
            <trkpt lon="99.691307" lat="12.913896">
                <ele>87.140000</ele>
                <time>2015-01-25T03:13:38Z</time>
            </trkpt>
            <trkpt lon="99.691660" lat="12.914070">
                <ele>88.580000</ele>
                <time>2015-01-25T03:13:46Z</time>
            </trkpt>
            <trkpt lon="99.692042" lat="12.914287">
                <ele>89.540000</ele>
                <time>2015-01-25T03:13:56Z</time>
            </trkpt>
            <trkpt lon="99.691977" lat="12.914404">
                <ele>89.540000</ele>
                <time>2015-01-25T03:14:01Z</time>
            </trkpt>
            <trkpt lon="99.691876" lat="12.914807">
                <ele>90.500000</ele>
                <time>2015-01-25T03:14:16Z</time>
            </trkpt>
            <trkpt lon="99.691703" lat="12.915404">
                <ele>89.060000</ele>
                <time>2015-01-25T03:14:31Z</time>
            </trkpt>
            <trkpt lon="99.691631" lat="12.915731">
                <ele>92.420000</ele>
                <time>2015-01-25T03:14:44Z</time>
            </trkpt>
            <trkpt lon="99.691478" lat="12.916280">
                <ele>94.350000</ele>
                <time>2015-01-25T03:15:01Z</time>
            </trkpt>
            <trkpt lon="99.691262" lat="12.916777">
                <ele>95.790000</ele>
                <time>2015-01-25T03:15:18Z</time>
            </trkpt>
            <trkpt lon="99.691138" lat="12.917239">
                <ele>96.750000</ele>
                <time>2015-01-25T03:15:32Z</time>
            </trkpt>
            <trkpt lon="99.691130" lat="12.917261">
                <ele>99.150000</ele>
                <time>2015-01-25T03:15:42Z</time>
            </trkpt>
            <trkpt lon="99.691127" lat="12.917312">
                <ele>100.110000</ele>
                <time>2015-01-25T03:15:57Z</time>
            </trkpt>
            <trkpt lon="99.691066" lat="12.917526">
                <ele>103.000000</ele>
                <time>2015-01-25T03:16:12Z</time>
            </trkpt>
            <trkpt lon="99.691039" lat="12.917660">
                <ele>105.880000</ele>
                <time>2015-01-25T03:16:21Z</time>
            </trkpt>
            <trkpt lon="99.691047" lat="12.917708">
                <ele>106.840000</ele>
                <time>2015-01-25T03:16:25Z</time>
            </trkpt>
            <trkpt lon="99.690960" lat="12.917990">
                <ele>111.170000</ele>
                <time>2015-01-25T03:16:42Z</time>
            </trkpt>
            <trkpt lon="99.690915" lat="12.918347">
                <ele>109.250000</ele>
                <time>2015-01-25T03:16:56Z</time>
            </trkpt>
            <trkpt lon="99.690950" lat="12.918775">
                <ele>106.360000</ele>
                <time>2015-01-25T03:17:08Z</time>
            </trkpt>
            <trkpt lon="99.690789" lat="12.919358">
                <ele>104.920000</ele>
                <time>2015-01-25T03:17:21Z</time>
            </trkpt>
            <trkpt lon="99.690675" lat="12.919781">
                <ele>103.960000</ele>
                <time>2015-01-25T03:17:31Z</time>
            </trkpt>
            <trkpt lon="99.690601" lat="12.919867">
                <ele>104.920000</ele>
                <time>2015-01-25T03:17:38Z</time>
            </trkpt>
            <trkpt lon="99.690424" lat="12.920066">
                <ele>107.320000</ele>
                <time>2015-01-25T03:17:54Z</time>
            </trkpt>
            <trkpt lon="99.690329" lat="12.920415">
                <ele>105.400000</ele>
                <time>2015-01-25T03:18:07Z</time>
            </trkpt>
            <trkpt lon="99.690175" lat="12.920844">
                <ele>103.480000</ele>
                <time>2015-01-25T03:18:18Z</time>
            </trkpt>
            <trkpt lon="99.690137" lat="12.920919">
                <ele>103.480000</ele>
                <time>2015-01-25T03:18:20Z</time>
            </trkpt>
            <trkpt lon="99.689872" lat="12.921589">
                <ele>104.920000</ele>
                <time>2015-01-25T03:18:36Z</time>
            </trkpt>
            <trkpt lon="99.689626" lat="12.922093">
                <ele>106.360000</ele>
                <time>2015-01-25T03:18:50Z</time>
            </trkpt>
            <trkpt lon="99.689454" lat="12.922488">
                <ele>106.840000</ele>
                <time>2015-01-25T03:19:03Z</time>
            </trkpt>
            <trkpt lon="99.689374" lat="12.922969">
                <ele>106.840000</ele>
                <time>2015-01-25T03:19:17Z</time>
            </trkpt>
            <trkpt lon="99.689071" lat="12.923240">
                <ele>105.880000</ele>
                <time>2015-01-25T03:19:28Z</time>
            </trkpt>
            <trkpt lon="99.688862" lat="12.923383">
                <ele>105.880000</ele>
                <time>2015-01-25T03:19:38Z</time>
            </trkpt>
            <trkpt lon="99.688595" lat="12.923580">
                <ele>105.880000</ele>
                <time>2015-01-25T03:19:50Z</time>
            </trkpt>
            <trkpt lon="99.688312" lat="12.923693">
                <ele>107.320000</ele>
                <time>2015-01-25T03:20:01Z</time>
            </trkpt>
            <trkpt lon="99.687927" lat="12.923808">
                <ele>108.290000</ele>
                <time>2015-01-25T03:20:16Z</time>
            </trkpt>
            <trkpt lon="99.687594" lat="12.923879">
                <ele>110.690000</ele>
                <time>2015-01-25T03:20:30Z</time>
            </trkpt>
            <trkpt lon="99.687274" lat="12.923976">
                <ele>111.650000</ele>
                <time>2015-01-25T03:20:44Z</time>
            </trkpt>
            <trkpt lon="99.687013" lat="12.924064">
                <ele>114.050000</ele>
                <time>2015-01-25T03:20:58Z</time>
            </trkpt>
            <trkpt lon="99.686662" lat="12.924237">
                <ele>111.650000</ele>
                <time>2015-01-25T03:21:10Z</time>
            </trkpt>
            <trkpt lon="99.686436" lat="12.924429">
                <ele>113.090000</ele>
                <time>2015-01-25T03:21:20Z</time>
            </trkpt>
            <trkpt lon="99.686415" lat="12.924449">
                <ele>113.570000</ele>
                <time>2015-01-25T03:21:21Z</time>
            </trkpt>
            <trkpt lon="99.686116" lat="12.924711">
                <ele>115.980000</ele>
                <time>2015-01-25T03:21:34Z</time>
            </trkpt>
            <trkpt lon="99.685961" lat="12.924960">
                <ele>115.500000</ele>
                <time>2015-01-25T03:21:44Z</time>
            </trkpt>
            <trkpt lon="99.685893" lat="12.925232">
                <ele>113.570000</ele>
                <time>2015-01-25T03:21:53Z</time>
            </trkpt>
            <trkpt lon="99.685875" lat="12.925358">
                <ele>113.090000</ele>
                <time>2015-01-25T03:21:57Z</time>
            </trkpt>
            <trkpt lon="99.685613" lat="12.925766">
                <ele>110.210000</ele>
                <time>2015-01-25T03:22:10Z</time>
            </trkpt>
            <trkpt lon="99.685426" lat="12.926061">
                <ele>108.770000</ele>
                <time>2015-01-25T03:22:22Z</time>
            </trkpt>
            <trkpt lon="99.685427" lat="12.926368">
                <ele>108.290000</ele>
                <time>2015-01-25T03:22:33Z</time>
            </trkpt>
            <trkpt lon="99.685447" lat="12.926649">
                <ele>105.400000</ele>
                <time>2015-01-25T03:22:42Z</time>
            </trkpt>
            <trkpt lon="99.685444" lat="12.926660">
                <ele>105.400000</ele>
                <time>2015-01-25T03:22:43Z</time>
            </trkpt>
            <trkpt lon="99.685443" lat="12.926905">
                <ele>104.920000</ele>
                <time>2015-01-25T03:22:54Z</time>
            </trkpt>
            <trkpt lon="99.685437" lat="12.927058">
                <ele>105.400000</ele>
                <time>2015-01-25T03:22:59Z</time>
            </trkpt>
            <trkpt lon="99.685436" lat="12.927490">
                <ele>103.480000</ele>
                <time>2015-01-25T03:23:12Z</time>
            </trkpt>
            <trkpt lon="99.685412" lat="12.927834">
                <ele>100.110000</ele>
                <time>2015-01-25T03:23:25Z</time>
            </trkpt>
            <trkpt lon="99.685406" lat="12.927947">
                <ele>99.630000</ele>
                <time>2015-01-25T03:23:28Z</time>
            </trkpt>
            <trkpt lon="99.685391" lat="12.928504">
                <ele>99.150000</ele>
                <time>2015-01-25T03:23:42Z</time>
            </trkpt>
            <trkpt lon="99.685378" lat="12.928993">
                <ele>99.630000</ele>
                <time>2015-01-25T03:23:55Z</time>
            </trkpt>
            <trkpt lon="99.685367" lat="12.929347">
                <ele>98.670000</ele>
                <time>2015-01-25T03:24:04Z</time>
            </trkpt>
            <trkpt lon="99.685362" lat="12.929754">
                <ele>97.710000</ele>
                <time>2015-01-25T03:24:14Z</time>
            </trkpt>
            <trkpt lon="99.685324" lat="12.930293">
                <ele>95.790000</ele>
                <time>2015-01-25T03:24:27Z</time>
            </trkpt>
            <trkpt lon="99.685329" lat="12.930598">
                <ele>95.790000</ele>
                <time>2015-01-25T03:24:36Z</time>
            </trkpt>
            <trkpt lon="99.685597" lat="12.930647">
                <ele>94.350000</ele>
                <time>2015-01-25T03:24:45Z</time>
            </trkpt>
            <trkpt lon="99.685860" lat="12.930636">
                <ele>92.900000</ele>
                <time>2015-01-25T03:24:53Z</time>
            </trkpt>
            <trkpt lon="99.685920" lat="12.930740">
                <ele>92.900000</ele>
                <time>2015-01-25T03:24:58Z</time>
            </trkpt>
            <trkpt lon="99.686066" lat="12.930832">
                <ele>92.900000</ele>
                <time>2015-01-25T03:25:03Z</time>
            </trkpt>
            <trkpt lon="99.686435" lat="12.930764">
                <ele>89.540000</ele>
                <time>2015-01-25T03:25:16Z</time>
            </trkpt>
            <trkpt lon="99.686546" lat="12.930895">
                <ele>88.580000</ele>
                <time>2015-01-25T03:25:22Z</time>
            </trkpt>
            <trkpt lon="99.686573" lat="12.930991">
                <ele>89.060000</ele>
                <time>2015-01-25T03:25:24Z</time>
            </trkpt>
            <trkpt lon="99.686888" lat="12.931430">
                <ele>90.500000</ele>
                <time>2015-01-25T03:25:38Z</time>
            </trkpt>
            <trkpt lon="99.687174" lat="12.931772">
                <ele>91.940000</ele>
                <time>2015-01-25T03:25:52Z</time>
            </trkpt>
            <trkpt lon="99.687435" lat="12.932123">
                <ele>91.940000</ele>
                <time>2015-01-25T03:26:05Z</time>
            </trkpt>
            <trkpt lon="99.687419" lat="12.932145">
                <ele>91.940000</ele>
                <time>2015-01-25T03:26:06Z</time>
            </trkpt>
            <trkpt lon="99.687101" lat="12.932518">
                <ele>91.460000</ele>
                <time>2015-01-25T03:26:19Z</time>
            </trkpt>
            <trkpt lon="99.686615" lat="12.933098">
                <ele>91.460000</ele>
                <time>2015-01-25T03:26:38Z</time>
            </trkpt>
            <trkpt lon="99.686154" lat="12.933624">
                <ele>93.870000</ele>
                <time>2015-01-25T03:26:57Z</time>
            </trkpt>
            <trkpt lon="99.685831" lat="12.934026">
                <ele>94.350000</ele>
                <time>2015-01-25T03:27:11Z</time>
            </trkpt>
            <trkpt lon="99.685416" lat="12.934577">
                <ele>95.790000</ele>
                <time>2015-01-25T03:27:29Z</time>
            </trkpt>
            <trkpt lon="99.685202" lat="12.934803">
                <ele>95.790000</ele>
                <time>2015-01-25T03:27:38Z</time>
            </trkpt>
            <trkpt lon="99.685107" lat="12.934762">
                <ele>95.790000</ele>
                <time>2015-01-25T03:27:41Z</time>
            </trkpt>
            <trkpt lon="99.684641" lat="12.934309">
                <ele>95.790000</ele>
                <time>2015-01-25T03:27:58Z</time>
            </trkpt>
            <trkpt lon="99.684540" lat="12.934215">
                <ele>95.310000</ele>
                <time>2015-01-25T03:28:01Z</time>
            </trkpt>
            <trkpt lon="99.684191" lat="12.933646">
                <ele>94.350000</ele>
                <time>2015-01-25T03:28:16Z</time>
            </trkpt>
            <trkpt lon="99.683870" lat="12.933330">
                <ele>94.350000</ele>
                <time>2015-01-25T03:28:29Z</time>
            </trkpt>
            <trkpt lon="99.683309" lat="12.932980">
                <ele>95.310000</ele>
                <time>2015-01-25T03:28:45Z</time>
            </trkpt>
            <trkpt lon="99.682667" lat="12.932585">
                <ele>93.390000</ele>
                <time>2015-01-25T03:29:01Z</time>
            </trkpt>
            <trkpt lon="99.682584" lat="12.932537">
                <ele>93.390000</ele>
                <time>2015-01-25T03:29:03Z</time>
            </trkpt>
            <trkpt lon="99.682454" lat="12.932420">
                <ele>92.420000</ele>
                <time>2015-01-25T03:29:07Z</time>
            </trkpt>
            <trkpt lon="99.682393" lat="12.932359">
                <ele>92.420000</ele>
                <time>2015-01-25T03:29:09Z</time>
            </trkpt>
            <trkpt lon="99.682222" lat="12.932166">
                <ele>94.350000</ele>
                <time>2015-01-25T03:29:20Z</time>
            </trkpt>
            <trkpt lon="99.682038" lat="12.931913">
                <ele>97.230000</ele>
                <time>2015-01-25T03:29:37Z</time>
            </trkpt>
            <trkpt lon="99.681759" lat="12.931690">
                <ele>98.670000</ele>
                <time>2015-01-25T03:29:50Z</time>
            </trkpt>
            <trkpt lon="99.681475" lat="12.931558">
                <ele>100.110000</ele>
                <time>2015-01-25T03:30:03Z</time>
            </trkpt>
            <trkpt lon="99.681171" lat="12.931398">
                <ele>102.040000</ele>
                <time>2015-01-25T03:30:16Z</time>
            </trkpt>
            <trkpt lon="99.680871" lat="12.931330">
                <ele>103.480000</ele>
                <time>2015-01-25T03:30:28Z</time>
            </trkpt>
            <trkpt lon="99.680538" lat="12.931128">
                <ele>105.880000</ele>
                <time>2015-01-25T03:30:43Z</time>
            </trkpt>
            <trkpt lon="99.680461" lat="12.931083">
                <ele>106.840000</ele>
                <time>2015-01-25T03:30:49Z</time>
            </trkpt>
            <trkpt lon="99.680046" lat="12.931091">
                <ele>107.810000</ele>
                <time>2015-01-25T03:31:05Z</time>
            </trkpt>
            <trkpt lon="99.679514" lat="12.931077">
                <ele>105.400000</ele>
                <time>2015-01-25T03:31:19Z</time>
            </trkpt>
            <trkpt lon="99.679377" lat="12.931075">
                <ele>104.920000</ele>
                <time>2015-01-25T03:31:22Z</time>
            </trkpt>
            <trkpt lon="99.678767" lat="12.931099">
                <ele>103.960000</ele>
                <time>2015-01-25T03:31:36Z</time>
            </trkpt>
            <trkpt lon="99.678691" lat="12.931109">
                <ele>103.960000</ele>
                <time>2015-01-25T03:31:38Z</time>
            </trkpt>
            <trkpt lon="99.678418" lat="12.931112">
                <ele>103.960000</ele>
                <time>2015-01-25T03:31:45Z</time>
            </trkpt>
            <trkpt lon="99.678308" lat="12.931286">
                <ele>103.000000</ele>
                <time>2015-01-25T03:31:51Z</time>
            </trkpt>
            <trkpt lon="99.678248" lat="12.931459">
                <ele>102.040000</ele>
                <time>2015-01-25T03:31:55Z</time>
            </trkpt>
            <trkpt lon="99.678075" lat="12.932120">
                <ele>97.710000</ele>
                <time>2015-01-25T03:32:09Z</time>
            </trkpt>
            <trkpt lon="99.677959" lat="12.932537">
                <ele>96.750000</ele>
                <time>2015-01-25T03:32:18Z</time>
            </trkpt>
            <trkpt lon="99.677876" lat="12.933054">
                <ele>97.230000</ele>
                <time>2015-01-25T03:32:31Z</time>
            </trkpt>
            <trkpt lon="99.677750" lat="12.933235">
                <ele>98.190000</ele>
                <time>2015-01-25T03:32:37Z</time>
            </trkpt>
            <trkpt lon="99.677284" lat="12.933164">
                <ele>99.150000</ele>
                <time>2015-01-25T03:32:49Z</time>
            </trkpt>
            <trkpt lon="99.676864" lat="12.933082">
                <ele>100.600000</ele>
                <time>2015-01-25T03:33:00Z</time>
            </trkpt>
            <trkpt lon="99.676469" lat="12.933077">
                <ele>102.040000</ele>
                <time>2015-01-25T03:33:11Z</time>
            </trkpt>
            <trkpt lon="99.675935" lat="12.933000">
                <ele>104.440000</ele>
                <time>2015-01-25T03:33:27Z</time>
            </trkpt>
            <trkpt lon="99.675466" lat="12.932789">
                <ele>106.840000</ele>
                <time>2015-01-25T03:33:42Z</time>
            </trkpt>
            <trkpt lon="99.675159" lat="12.932671">
                <ele>106.840000</ele>
                <time>2015-01-25T03:33:54Z</time>
            </trkpt>
            <trkpt lon="99.674833" lat="12.932613">
                <ele>108.290000</ele>
                <time>2015-01-25T03:34:07Z</time>
            </trkpt>
            <trkpt lon="99.674777" lat="12.932479">
                <ele>107.810000</ele>
                <time>2015-01-25T03:34:13Z</time>
            </trkpt>
            <trkpt lon="99.674759" lat="12.932099">
                <ele>106.360000</ele>
                <time>2015-01-25T03:34:26Z</time>
            </trkpt>
            <trkpt lon="99.674672" lat="12.932080">
                <ele>107.320000</ele>
                <time>2015-01-25T03:34:30Z</time>
            </trkpt>
            <trkpt lon="99.674373" lat="12.932045">
                <ele>110.210000</ele>
                <time>2015-01-25T03:34:44Z</time>
            </trkpt>
            <trkpt lon="99.674124" lat="12.932014">
                <ele>114.050000</ele>
                <time>2015-01-25T03:34:57Z</time>
            </trkpt>
            <trkpt lon="99.674001" lat="12.932000">
                <ele>115.980000</ele>
                <time>2015-01-25T03:35:04Z</time>
            </trkpt>
            <trkpt lon="99.673751" lat="12.931968">
                <ele>117.900000</ele>
                <time>2015-01-25T03:35:18Z</time>
            </trkpt>
            <trkpt lon="99.673548" lat="12.931935">
                <ele>119.820000</ele>
                <time>2015-01-25T03:35:32Z</time>
            </trkpt>
            <trkpt lon="99.673423" lat="12.931952">
                <ele>120.300000</ele>
                <time>2015-01-25T03:35:44Z</time>
            </trkpt>
            <trkpt lon="99.673392" lat="12.931946">
                <ele>120.300000</ele>
                <time>2015-01-25T03:35:53Z</time>
            </trkpt>
            <trkpt lon="99.673240" lat="12.931746">
                <ele>120.300000</ele>
                <time>2015-01-25T03:36:10Z</time>
            </trkpt>
            <trkpt lon="99.673095" lat="12.931609">
                <ele>121.260000</ele>
                <time>2015-01-25T03:36:24Z</time>
            </trkpt>
            <trkpt lon="99.672926" lat="12.931448">
                <ele>123.670000</ele>
                <time>2015-01-25T03:36:40Z</time>
            </trkpt>
            <trkpt lon="99.672722" lat="12.931272">
                <ele>126.070000</ele>
                <time>2015-01-25T03:36:59Z</time>
            </trkpt>
            <trkpt lon="99.672669" lat="12.931222">
                <ele>127.030000</ele>
                <time>2015-01-25T03:37:05Z</time>
            </trkpt>
            <trkpt lon="99.672555" lat="12.931101">
                <ele>129.430000</ele>
                <time>2015-01-25T03:37:18Z</time>
            </trkpt>
            <trkpt lon="99.672381" lat="12.930954">
                <ele>133.280000</ele>
                <time>2015-01-25T03:37:33Z</time>
            </trkpt>
            <trkpt lon="99.672153" lat="12.930720">
                <ele>133.760000</ele>
                <time>2015-01-25T03:37:50Z</time>
            </trkpt>
            <trkpt lon="99.671793" lat="12.930321">
                <ele>132.320000</ele>
                <time>2015-01-25T03:38:02Z</time>
            </trkpt>
            <trkpt lon="99.671098" lat="12.929555">
                <ele>128.470000</ele>
                <time>2015-01-25T03:38:19Z</time>
            </trkpt>
            <trkpt lon="99.670958" lat="12.929458">
                <ele>127.510000</ele>
                <time>2015-01-25T03:38:22Z</time>
            </trkpt>
            <trkpt lon="99.670757" lat="12.929377">
                <ele>126.550000</ele>
                <time>2015-01-25T03:38:26Z</time>
            </trkpt>
            <trkpt lon="99.670707" lat="12.929367">
                <ele>126.550000</ele>
                <time>2015-01-25T03:38:27Z</time>
            </trkpt>
            <trkpt lon="99.670292" lat="12.929361">
                <ele>125.590000</ele>
                <time>2015-01-25T03:38:35Z</time>
            </trkpt>
            <trkpt lon="99.670241" lat="12.929374">
                <ele>125.590000</ele>
                <time>2015-01-25T03:38:36Z</time>
            </trkpt>
            <trkpt lon="99.669446" lat="12.929793">
                <ele>124.630000</ele>
                <time>2015-01-25T03:38:54Z</time>
            </trkpt>
            <trkpt lon="99.668545" lat="12.930356">
                <ele>125.590000</ele>
                <time>2015-01-25T03:39:16Z</time>
            </trkpt>
            <trkpt lon="99.667860" lat="12.930785">
                <ele>126.070000</ele>
                <time>2015-01-25T03:39:33Z</time>
            </trkpt>
            <trkpt lon="99.666997" lat="12.931173">
                <ele>126.070000</ele>
                <time>2015-01-25T03:39:52Z</time>
            </trkpt>
            <trkpt lon="99.666748" lat="12.931202">
                <ele>127.030000</ele>
                <time>2015-01-25T03:39:57Z</time>
            </trkpt>
            <trkpt lon="99.666705" lat="12.931195">
                <ele>127.510000</ele>
                <time>2015-01-25T03:39:58Z</time>
            </trkpt>
            <trkpt lon="99.666179" lat="12.930929">
                <ele>129.430000</ele>
                <time>2015-01-25T03:40:13Z</time>
            </trkpt>
            <trkpt lon="99.665680" lat="12.930501">
                <ele>126.070000</ele>
                <time>2015-01-25T03:40:26Z</time>
            </trkpt>
            <trkpt lon="99.665315" lat="12.929895">
                <ele>120.300000</ele>
                <time>2015-01-25T03:40:37Z</time>
            </trkpt>
            <trkpt lon="99.665125" lat="12.929531">
                <ele>123.190000</ele>
                <time>2015-01-25T03:40:48Z</time>
            </trkpt>
            <trkpt lon="99.664999" lat="12.929320">
                <ele>126.070000</ele>
                <time>2015-01-25T03:41:04Z</time>
            </trkpt>
            <trkpt lon="99.664876" lat="12.929108">
                <ele>128.470000</ele>
                <time>2015-01-25T03:41:21Z</time>
            </trkpt>
            <trkpt lon="99.664867" lat="12.929096">
                <ele>128.950000</ele>
                <time>2015-01-25T03:41:22Z</time>
            </trkpt>
            <trkpt lon="99.664753" lat="12.928924">
                <ele>130.880000</ele>
                <time>2015-01-25T03:41:36Z</time>
            </trkpt>
            <trkpt lon="99.664600" lat="12.928743">
                <ele>133.760000</ele>
                <time>2015-01-25T03:41:52Z</time>
            </trkpt>
            <trkpt lon="99.664537" lat="12.928664">
                <ele>134.720000</ele>
                <time>2015-01-25T03:41:59Z</time>
            </trkpt>
            <trkpt lon="99.664531" lat="12.928652">
                <ele>134.720000</ele>
                <time>2015-01-25T03:42:00Z</time>
            </trkpt>
            <trkpt lon="99.664522" lat="12.928639">
                <ele>134.720000</ele>
                <time>2015-01-25T03:42:01Z</time>
            </trkpt>
            <trkpt lon="99.664511" lat="12.928624">
                <ele>134.720000</ele>
                <time>2015-01-25T03:42:02Z</time>
            </trkpt>
            <trkpt lon="99.664498" lat="12.928611">
                <ele>134.720000</ele>
                <time>2015-01-25T03:42:03Z</time>
            </trkpt>
            <trkpt lon="99.664484" lat="12.928598">
                <ele>135.200000</ele>
                <time>2015-01-25T03:42:04Z</time>
            </trkpt>
            <trkpt lon="99.664196" lat="12.928331">
                <ele>136.160000</ele>
                <time>2015-01-25T03:42:21Z</time>
            </trkpt>
            <trkpt lon="99.663645" lat="12.927821">
                <ele>136.640000</ele>
                <time>2015-01-25T03:42:42Z</time>
            </trkpt>
            <trkpt lon="99.663395" lat="12.927663">
                <ele>136.640000</ele>
                <time>2015-01-25T03:42:51Z</time>
            </trkpt>
            <trkpt lon="99.663380" lat="12.927675">
                <ele>135.680000</ele>
                <time>2015-01-25T03:42:54Z</time>
            </trkpt>
            <trkpt lon="99.663367" lat="12.927756">
                <ele>134.240000</ele>
                <time>2015-01-25T03:42:58Z</time>
            </trkpt>
            <trkpt lon="99.663297" lat="12.927956">
                <ele>133.280000</ele>
                <time>2015-01-25T03:43:07Z</time>
            </trkpt>
            <trkpt lon="99.663039" lat="12.928123">
                <ele>132.320000</ele>
                <time>2015-01-25T03:43:16Z</time>
            </trkpt>
            <trkpt lon="99.662907" lat="12.928404">
                <ele>136.640000</ele>
                <time>2015-01-25T03:43:30Z</time>
            </trkpt>
            <trkpt lon="99.662718" lat="12.928731">
                <ele>140.490000</ele>
                <time>2015-01-25T03:43:42Z</time>
            </trkpt>
            <trkpt lon="99.662549" lat="12.928835">
                <ele>142.890000</ele>
                <time>2015-01-25T03:43:54Z</time>
            </trkpt>
            <trkpt lon="99.662293" lat="12.928920">
                <ele>142.410000</ele>
                <time>2015-01-25T03:44:08Z</time>
            </trkpt>
            <trkpt lon="99.661978" lat="12.929195">
                <ele>140.970000</ele>
                <time>2015-01-25T03:44:21Z</time>
            </trkpt>
            <trkpt lon="99.661705" lat="12.929363">
                <ele>137.610000</ele>
                <time>2015-01-25T03:44:33Z</time>
            </trkpt>
            <trkpt lon="99.661564" lat="12.929476">
                <ele>135.680000</ele>
                <time>2015-01-25T03:44:43Z</time>
            </trkpt>
            <trkpt lon="99.661493" lat="12.929562">
                <ele>133.280000</ele>
                <time>2015-01-25T03:44:58Z</time>
            </trkpt>
            <trkpt lon="99.661351" lat="12.929653">
                <ele>130.880000</ele>
                <time>2015-01-25T03:45:13Z</time>
            </trkpt>
            <trkpt lon="99.661237" lat="12.929737">
                <ele>136.160000</ele>
                <time>2015-01-25T03:45:22Z</time>
            </trkpt>
            <trkpt lon="99.661121" lat="12.929816">
                <ele>140.970000</ele>
                <time>2015-01-25T03:45:40Z</time>
            </trkpt>
            <trkpt lon="99.660970" lat="12.929912">
                <ele>139.530000</ele>
                <time>2015-01-25T03:45:57Z</time>
            </trkpt>
            <trkpt lon="99.660876" lat="12.929971">
                <ele>139.530000</ele>
                <time>2015-01-25T03:46:15Z</time>
            </trkpt>
            <trkpt lon="99.660871" lat="12.929977">
                <ele>139.530000</ele>
                <time>2015-01-25T03:46:38Z</time>
            </trkpt>
            <trkpt lon="99.660865" lat="12.929997">
                <ele>140.010000</ele>
                <time>2015-01-25T03:46:51Z</time>
            </trkpt>
            <trkpt lon="99.660856" lat="12.930083">
                <ele>141.450000</ele>
                <time>2015-01-25T03:46:56Z</time>
            </trkpt>
            <trkpt lon="99.660881" lat="12.930402">
                <ele>147.700000</ele>
                <time>2015-01-25T03:47:10Z</time>
            </trkpt>
            <trkpt lon="99.660859" lat="12.930784">
                <ele>155.390000</ele>
                <time>2015-01-25T03:47:25Z</time>
            </trkpt>
            <trkpt lon="99.660858" lat="12.931089">
                <ele>160.680000</ele>
                <time>2015-01-25T03:47:38Z</time>
            </trkpt>
            <trkpt lon="99.660723" lat="12.931334">
                <ele>165.480000</ele>
                <time>2015-01-25T03:47:48Z</time>
            </trkpt>
            <trkpt lon="99.660477" lat="12.931574">
                <ele>161.640000</ele>
                <time>2015-01-25T03:48:00Z</time>
            </trkpt>
            <trkpt lon="99.660229" lat="12.931763">
                <ele>160.200000</ele>
                <time>2015-01-25T03:48:12Z</time>
            </trkpt>
            <trkpt lon="99.660050" lat="12.931865">
                <ele>165.480000</ele>
                <time>2015-01-25T03:48:26Z</time>
            </trkpt>
            <trkpt lon="99.659921" lat="12.931940">
                <ele>169.330000</ele>
                <time>2015-01-25T03:48:40Z</time>
            </trkpt>
            <trkpt lon="99.659823" lat="12.932006">
                <ele>169.810000</ele>
                <time>2015-01-25T03:48:50Z</time>
            </trkpt>
            <trkpt lon="99.659751" lat="12.932042">
                <ele>170.290000</ele>
                <time>2015-01-25T03:48:57Z</time>
            </trkpt>
            <trkpt lon="99.659527" lat="12.932168">
                <ele>162.600000</ele>
                <time>2015-01-25T03:49:14Z</time>
            </trkpt>
            <trkpt lon="99.659309" lat="12.932259">
                <ele>165.000000</ele>
                <time>2015-01-25T03:49:28Z</time>
            </trkpt>
            <trkpt lon="99.659015" lat="12.932296">
                <ele>166.930000</ele>
                <time>2015-01-25T03:49:39Z</time>
            </trkpt>
            <trkpt lon="99.658572" lat="12.932410">
                <ele>155.390000</ele>
                <time>2015-01-25T03:49:53Z</time>
            </trkpt>
            <trkpt lon="99.658250" lat="12.932386">
                <ele>149.140000</ele>
                <time>2015-01-25T03:50:05Z</time>
            </trkpt>
            <trkpt lon="99.658174" lat="12.932198">
                <ele>150.580000</ele>
                <time>2015-01-25T03:50:19Z</time>
            </trkpt>
            <trkpt lon="99.658118" lat="12.932123">
                <ele>150.580000</ele>
                <time>2015-01-25T03:50:25Z</time>
            </trkpt>
            <trkpt lon="99.657991" lat="12.931906">
                <ele>152.510000</ele>
                <time>2015-01-25T03:50:40Z</time>
            </trkpt>
            <trkpt lon="99.657864" lat="12.931714">
                <ele>154.430000</ele>
                <time>2015-01-25T03:50:57Z</time>
            </trkpt>
            <trkpt lon="99.657779" lat="12.931592">
                <ele>154.910000</ele>
                <time>2015-01-25T03:51:07Z</time>
            </trkpt>
            <trkpt lon="99.657609" lat="12.931413">
                <ele>154.910000</ele>
                <time>2015-01-25T03:51:21Z</time>
            </trkpt>
            <trkpt lon="99.657397" lat="12.931283">
                <ele>154.910000</ele>
                <time>2015-01-25T03:51:32Z</time>
            </trkpt>
            <trkpt lon="99.657313" lat="12.931155">
                <ele>155.390000</ele>
                <time>2015-01-25T03:51:40Z</time>
            </trkpt>
            <trkpt lon="99.657234" lat="12.930957">
                <ele>156.830000</ele>
                <time>2015-01-25T03:51:53Z</time>
            </trkpt>
            <trkpt lon="99.656990" lat="12.930813">
                <ele>156.350000</ele>
                <time>2015-01-25T03:52:08Z</time>
            </trkpt>
            <trkpt lon="99.656738" lat="12.930636">
                <ele>153.950000</ele>
                <time>2015-01-25T03:52:20Z</time>
            </trkpt>
            <trkpt lon="99.656773" lat="12.930467">
                <ele>156.350000</ele>
                <time>2015-01-25T03:52:34Z</time>
            </trkpt>
            <trkpt lon="99.656877" lat="12.930398">
                <ele>159.240000</ele>
                <time>2015-01-25T03:52:47Z</time>
            </trkpt>
            <trkpt lon="99.656917" lat="12.930384">
                <ele>162.120000</ele>
                <time>2015-01-25T03:53:01Z</time>
            </trkpt>
            <trkpt lon="99.656940" lat="12.930380">
                <ele>162.120000</ele>
                <time>2015-01-25T03:53:24Z</time>
            </trkpt>
            <trkpt lon="99.656961" lat="12.930368">
                <ele>162.120000</ele>
                <time>2015-01-25T03:53:32Z</time>
            </trkpt>
            <trkpt lon="99.657042" lat="12.930328">
                <ele>161.640000</ele>
                <time>2015-01-25T03:53:38Z</time>
            </trkpt>
            <trkpt lon="99.657270" lat="12.930136">
                <ele>156.350000</ele>
                <time>2015-01-25T03:53:50Z</time>
            </trkpt>
            <trkpt lon="99.657326" lat="12.930094">
                <ele>155.390000</ele>
                <time>2015-01-25T03:53:54Z</time>
            </trkpt>
            <trkpt lon="99.657524" lat="12.929902">
                <ele>154.430000</ele>
                <time>2015-01-25T03:54:10Z</time>
            </trkpt>
            <trkpt lon="99.657518" lat="12.929693">
                <ele>156.830000</ele>
                <time>2015-01-25T03:54:24Z</time>
            </trkpt>
            <trkpt lon="99.657463" lat="12.929663">
                <ele>157.790000</ele>
                <time>2015-01-25T03:54:28Z</time>
            </trkpt>
            <trkpt lon="99.657252" lat="12.929690">
                <ele>159.720000</ele>
                <time>2015-01-25T03:54:43Z</time>
            </trkpt>
            <trkpt lon="99.657095" lat="12.929728">
                <ele>156.350000</ele>
                <time>2015-01-25T03:54:55Z</time>
            </trkpt>
            <trkpt lon="99.656868" lat="12.929618">
                <ele>152.510000</ele>
                <time>2015-01-25T03:55:06Z</time>
            </trkpt>
            <trkpt lon="99.656816" lat="12.929609">
                <ele>152.510000</ele>
                <time>2015-01-25T03:55:09Z</time>
            </trkpt>
            <trkpt lon="99.656604" lat="12.929591">
                <ele>152.510000</ele>
                <time>2015-01-25T03:55:18Z</time>
            </trkpt>
            <trkpt lon="99.656280" lat="12.929617">
                <ele>150.100000</ele>
                <time>2015-01-25T03:55:28Z</time>
            </trkpt>
            <trkpt lon="99.655963" lat="12.929468">
                <ele>149.140000</ele>
                <time>2015-01-25T03:55:39Z</time>
            </trkpt>
            <trkpt lon="99.655668" lat="12.929352">
                <ele>153.470000</ele>
                <time>2015-01-25T03:55:50Z</time>
            </trkpt>
            <trkpt lon="99.655368" lat="12.929297">
                <ele>158.270000</ele>
                <time>2015-01-25T03:56:08Z</time>
            </trkpt>
            <trkpt lon="99.655187" lat="12.929294">
                <ele>161.640000</ele>
                <time>2015-01-25T03:56:16Z</time>
            </trkpt>
            <trkpt lon="99.654803" lat="12.929431">
                <ele>164.040000</ele>
                <time>2015-01-25T03:56:30Z</time>
            </trkpt>
            <trkpt lon="99.654460" lat="12.929589">
                <ele>166.930000</ele>
                <time>2015-01-25T03:56:43Z</time>
            </trkpt>
            <trkpt lon="99.654317" lat="12.929861">
                <ele>170.290000</ele>
                <time>2015-01-25T03:56:55Z</time>
            </trkpt>
            <trkpt lon="99.654142" lat="12.930072">
                <ele>172.690000</ele>
                <time>2015-01-25T03:57:04Z</time>
            </trkpt>
            <trkpt lon="99.653982" lat="12.930165">
                <ele>176.540000</ele>
                <time>2015-01-25T03:57:16Z</time>
            </trkpt>
            <trkpt lon="99.653946" lat="12.930200">
                <ele>176.060000</ele>
                <time>2015-01-25T03:57:34Z</time>
            </trkpt>
            <trkpt lon="99.653686" lat="12.930330">
                <ele>171.250000</ele>
                <time>2015-01-25T03:57:49Z</time>
            </trkpt>
            <trkpt lon="99.653460" lat="12.930232">
                <ele>169.330000</ele>
                <time>2015-01-25T03:58:00Z</time>
            </trkpt>
            <trkpt lon="99.653304" lat="12.930007">
                <ele>169.330000</ele>
                <time>2015-01-25T03:58:14Z</time>
            </trkpt>
            <trkpt lon="99.653222" lat="12.929809">
                <ele>169.330000</ele>
                <time>2015-01-25T03:58:29Z</time>
            </trkpt>
            <trkpt lon="99.653030" lat="12.929515">
                <ele>171.730000</ele>
                <time>2015-01-25T03:58:48Z</time>
            </trkpt>
            <trkpt lon="99.652852" lat="12.929372">
                <ele>172.210000</ele>
                <time>2015-01-25T03:59:00Z</time>
            </trkpt>
            <trkpt lon="99.652786" lat="12.929366">
                <ele>171.730000</ele>
                <time>2015-01-25T03:59:04Z</time>
            </trkpt>
            <trkpt lon="99.652707" lat="12.929320">
                <ele>171.250000</ele>
                <time>2015-01-25T03:59:17Z</time>
            </trkpt>
            <trkpt lon="99.652478" lat="12.929106">
                <ele>166.930000</ele>
                <time>2015-01-25T03:59:32Z</time>
            </trkpt>
            <trkpt lon="99.652344" lat="12.929016">
                <ele>166.450000</ele>
                <time>2015-01-25T03:59:43Z</time>
            </trkpt>
            <trkpt lon="99.652218" lat="12.928964">
                <ele>164.040000</ele>
                <time>2015-01-25T03:59:58Z</time>
            </trkpt>
            <trkpt lon="99.652127" lat="12.928905">
                <ele>159.720000</ele>
                <time>2015-01-25T04:00:15Z</time>
            </trkpt>
            <trkpt lon="99.652123" lat="12.928902">
                <ele>158.270000</ele>
                <time>2015-01-25T04:00:33Z</time>
            </trkpt>
            <trkpt lon="99.652011" lat="12.928846">
                <ele>156.350000</ele>
                <time>2015-01-25T04:00:51Z</time>
            </trkpt>
            <trkpt lon="99.651912" lat="12.928827">
                <ele>154.910000</ele>
                <time>2015-01-25T04:01:06Z</time>
            </trkpt>
            <trkpt lon="99.651903" lat="12.928815">
                <ele>154.430000</ele>
                <time>2015-01-25T04:01:11Z</time>
            </trkpt>
            <trkpt lon="99.651826" lat="12.928718">
                <ele>151.540000</ele>
                <time>2015-01-25T04:01:25Z</time>
            </trkpt>
            <trkpt lon="99.651587" lat="12.928448">
                <ele>150.580000</ele>
                <time>2015-01-25T04:01:40Z</time>
            </trkpt>
            <trkpt lon="99.651361" lat="12.928157">
                <ele>148.180000</ele>
                <time>2015-01-25T04:01:52Z</time>
            </trkpt>
            <trkpt lon="99.651100" lat="12.927889">
                <ele>141.930000</ele>
                <time>2015-01-25T04:02:03Z</time>
            </trkpt>
            <trkpt lon="99.650980" lat="12.927747">
                <ele>140.010000</ele>
                <time>2015-01-25T04:02:07Z</time>
            </trkpt>
            <trkpt lon="99.650768" lat="12.927092">
                <ele>131.360000</ele>
                <time>2015-01-25T04:02:22Z</time>
            </trkpt>
            <trkpt lon="99.650746" lat="12.926905">
                <ele>129.920000</ele>
                <time>2015-01-25T04:02:27Z</time>
            </trkpt>
            <trkpt lon="99.650800" lat="12.926822">
                <ele>125.590000</ele>
                <time>2015-01-25T04:02:40Z</time>
            </trkpt>
            <trkpt lon="99.650889" lat="12.926676">
                <ele>120.780000</ele>
                <time>2015-01-25T04:02:56Z</time>
            </trkpt>
            <trkpt lon="99.650915" lat="12.926490">
                <ele>118.380000</ele>
                <time>2015-01-25T04:03:09Z</time>
            </trkpt>
            <trkpt lon="99.650757" lat="12.926332">
                <ele>116.460000</ele>
                <time>2015-01-25T04:03:16Z</time>
            </trkpt>
            <trkpt lon="99.650298" lat="12.926153">
                <ele>112.130000</ele>
                <time>2015-01-25T04:03:29Z</time>
            </trkpt>
            <trkpt lon="99.650175" lat="12.925698">
                <ele>108.770000</ele>
                <time>2015-01-25T04:03:40Z</time>
            </trkpt>
            <trkpt lon="99.650029" lat="12.925581">
                <ele>108.290000</ele>
                <time>2015-01-25T04:03:44Z</time>
            </trkpt>
            <trkpt lon="99.649889" lat="12.925517">
                <ele>107.810000</ele>
                <time>2015-01-25T04:03:47Z</time>
            </trkpt>
            <trkpt lon="99.649720" lat="12.925417">
                <ele>107.320000</ele>
                <time>2015-01-25T04:03:51Z</time>
            </trkpt>
            <trkpt lon="99.649656" lat="12.925350">
                <ele>106.840000</ele>
                <time>2015-01-25T04:03:53Z</time>
            </trkpt>
            <trkpt lon="99.649557" lat="12.924935">
                <ele>104.920000</ele>
                <time>2015-01-25T04:04:05Z</time>
            </trkpt>
            <trkpt lon="99.649598" lat="12.924826">
                <ele>103.960000</ele>
                <time>2015-01-25T04:04:13Z</time>
            </trkpt>
            <trkpt lon="99.649627" lat="12.924546">
                <ele>103.000000</ele>
                <time>2015-01-25T04:04:22Z</time>
            </trkpt>
            <trkpt lon="99.649602" lat="12.924522">
                <ele>103.000000</ele>
                <time>2015-01-25T04:04:23Z</time>
            </trkpt>
            <trkpt lon="99.649163" lat="12.924352">
                <ele>102.520000</ele>
                <time>2015-01-25T04:04:34Z</time>
            </trkpt>
            <trkpt lon="99.648787" lat="12.924127">
                <ele>102.040000</ele>
                <time>2015-01-25T04:04:43Z</time>
            </trkpt>
            <trkpt lon="99.648602" lat="12.924073">
                <ele>102.040000</ele>
                <time>2015-01-25T04:04:47Z</time>
            </trkpt>
            <trkpt lon="99.647806" lat="12.924004">
                <ele>101.560000</ele>
                <time>2015-01-25T04:05:04Z</time>
            </trkpt>
            <trkpt lon="99.647240" lat="12.923964">
                <ele>100.110000</ele>
                <time>2015-01-25T04:05:16Z</time>
            </trkpt>
            <trkpt lon="99.646338" lat="12.923790">
                <ele>98.670000</ele>
                <time>2015-01-25T04:05:34Z</time>
            </trkpt>
            <trkpt lon="99.645704" lat="12.923711">
                <ele>99.150000</ele>
                <time>2015-01-25T04:05:49Z</time>
            </trkpt>
            <trkpt lon="99.645665" lat="12.923567">
                <ele>101.080000</ele>
                <time>2015-01-25T04:05:54Z</time>
            </trkpt>
            <trkpt lon="99.645693" lat="12.922855">
                <ele>98.190000</ele>
                <time>2015-01-25T04:06:08Z</time>
            </trkpt>
            <trkpt lon="99.645744" lat="12.922310">
                <ele>96.750000</ele>
                <time>2015-01-25T04:06:23Z</time>
            </trkpt>
            <trkpt lon="99.645858" lat="12.921988">
                <ele>94.350000</ele>
                <time>2015-01-25T04:06:30Z</time>
            </trkpt>
            <trkpt lon="99.645889" lat="12.921507">
                <ele>91.460000</ele>
                <time>2015-01-25T04:06:40Z</time>
            </trkpt>
            <trkpt lon="99.645819" lat="12.920786">
                <ele>90.500000</ele>
                <time>2015-01-25T04:06:56Z</time>
            </trkpt>
            <trkpt lon="99.645805" lat="12.920701">
                <ele>90.500000</ele>
                <time>2015-01-25T04:06:58Z</time>
            </trkpt>
            <trkpt lon="99.645659" lat="12.920167">
                <ele>91.460000</ele>
                <time>2015-01-25T04:07:12Z</time>
            </trkpt>
            <trkpt lon="99.645424" lat="12.919746">
                <ele>92.420000</ele>
                <time>2015-01-25T04:07:26Z</time>
            </trkpt>
            <trkpt lon="99.645295" lat="12.919733">
                <ele>92.900000</ele>
                <time>2015-01-25T04:07:35Z</time>
            </trkpt>
            <trkpt lon="99.645216" lat="12.919739">
                <ele>93.390000</ele>
                <time>2015-01-25T04:07:42Z</time>
            </trkpt>
            <trkpt lon="99.645056" lat="12.919743">
                <ele>95.310000</ele>
                <time>2015-01-25T04:07:56Z</time>
            </trkpt>
            <trkpt lon="99.644963" lat="12.919473">
                <ele>96.270000</ele>
                <time>2015-01-25T04:08:10Z</time>
            </trkpt>
            <trkpt lon="99.644889" lat="12.919082">
                <ele>92.420000</ele>
                <time>2015-01-25T04:08:21Z</time>
            </trkpt>
            <trkpt lon="99.644760" lat="12.919040">
                <ele>91.940000</ele>
                <time>2015-01-25T04:08:26Z</time>
            </trkpt>
            <trkpt lon="99.644376" lat="12.919066">
                <ele>91.460000</ele>
                <time>2015-01-25T04:08:36Z</time>
            </trkpt>
            <trkpt lon="99.643869" lat="12.919299">
                <ele>90.020000</ele>
                <time>2015-01-25T04:08:50Z</time>
            </trkpt>
            <trkpt lon="99.643551" lat="12.919681">
                <ele>91.460000</ele>
                <time>2015-01-25T04:09:03Z</time>
            </trkpt>
            <trkpt lon="99.643380" lat="12.919891">
                <ele>92.900000</ele>
                <time>2015-01-25T04:09:17Z</time>
            </trkpt>
            <trkpt lon="99.643261" lat="12.920047">
                <ele>92.420000</ele>
                <time>2015-01-25T04:09:24Z</time>
            </trkpt>
            <trkpt lon="99.643124" lat="12.920078">
                <ele>90.500000</ele>
                <time>2015-01-25T04:09:29Z</time>
            </trkpt>
            <trkpt lon="99.642783" lat="12.920079">
                <ele>87.140000</ele>
                <time>2015-01-25T04:09:35Z</time>
            </trkpt>
            <trkpt lon="99.642544" lat="12.920184">
                <ele>86.660000</ele>
                <time>2015-01-25T04:09:40Z</time>
            </trkpt>
            <trkpt lon="99.642037" lat="12.920640">
                <ele>88.580000</ele>
                <time>2015-01-25T04:09:57Z</time>
            </trkpt>
            <trkpt lon="99.641849" lat="12.920811">
                <ele>90.980000</ele>
                <time>2015-01-25T04:10:09Z</time>
            </trkpt>
            <trkpt lon="99.641714" lat="12.920891">
                <ele>92.900000</ele>
                <time>2015-01-25T04:10:21Z</time>
            </trkpt>
            <trkpt lon="99.641653" lat="12.920909">
                <ele>93.390000</ele>
                <time>2015-01-25T04:10:25Z</time>
            </trkpt>
            <trkpt lon="99.641060" lat="12.921018">
                <ele>90.500000</ele>
                <time>2015-01-25T04:10:40Z</time>
            </trkpt>
            <trkpt lon="99.640589" lat="12.921110">
                <ele>88.100000</ele>
                <time>2015-01-25T04:10:52Z</time>
            </trkpt>
            <trkpt lon="99.640023" lat="12.921213">
                <ele>84.250000</ele>
                <time>2015-01-25T04:11:04Z</time>
            </trkpt>
            <trkpt lon="99.639743" lat="12.921221">
                <ele>79.930000</ele>
                <time>2015-01-25T04:11:11Z</time>
            </trkpt>
            <trkpt lon="99.639594" lat="12.921234">
                <ele>78.000000</ele>
                <time>2015-01-25T04:11:14Z</time>
            </trkpt>
            <trkpt lon="99.638753" lat="12.921241">
                <ele>75.120000</ele>
                <time>2015-01-25T04:11:31Z</time>
            </trkpt>
            <trkpt lon="99.637912" lat="12.921202">
                <ele>73.680000</ele>
                <time>2015-01-25T04:11:49Z</time>
            </trkpt>
            <trkpt lon="99.637279" lat="12.921177">
                <ele>72.720000</ele>
                <time>2015-01-25T04:12:04Z</time>
            </trkpt>
            <trkpt lon="99.636521" lat="12.920884">
                <ele>71.270000</ele>
                <time>2015-01-25T04:12:20Z</time>
            </trkpt>
            <trkpt lon="99.635723" lat="12.920571">
                <ele>70.790000</ele>
                <time>2015-01-25T04:12:37Z</time>
            </trkpt>
            <trkpt lon="99.635137" lat="12.920332">
                <ele>70.790000</ele>
                <time>2015-01-25T04:12:51Z</time>
            </trkpt>
            <trkpt lon="99.634872" lat="12.920182">
                <ele>69.830000</ele>
                <time>2015-01-25T04:13:00Z</time>
            </trkpt>
            <trkpt lon="99.634580" lat="12.919985">
                <ele>75.120000</ele>
                <time>2015-01-25T04:13:12Z</time>
            </trkpt>
            <trkpt lon="99.634414" lat="12.919864">
                <ele>79.450000</ele>
                <time>2015-01-25T04:13:22Z</time>
            </trkpt>
            <trkpt lon="99.634392" lat="12.919867">
                <ele>79.450000</ele>
                <time>2015-01-25T04:13:23Z</time>
            </trkpt>
            <trkpt lon="99.634376" lat="12.919876">
                <ele>79.450000</ele>
                <time>2015-01-25T04:13:24Z</time>
            </trkpt>
            <trkpt lon="99.634364" lat="12.919887">
                <ele>79.450000</ele>
                <time>2015-01-25T04:13:25Z</time>
            </trkpt>
            <trkpt lon="99.634351" lat="12.919893">
                <ele>79.930000</ele>
                <time>2015-01-25T04:13:26Z</time>
            </trkpt>
            <trkpt lon="99.634340" lat="12.919899">
                <ele>79.930000</ele>
                <time>2015-01-25T04:13:27Z</time>
            </trkpt>
            <trkpt lon="99.634330" lat="12.919907">
                <ele>79.930000</ele>
                <time>2015-01-25T04:13:28Z</time>
            </trkpt>
            <trkpt lon="99.634320" lat="12.919914">
                <ele>80.410000</ele>
                <time>2015-01-25T04:13:29Z</time>
            </trkpt>
            <trkpt lon="99.634214" lat="12.919967">
                <ele>82.330000</ele>
                <time>2015-01-25T04:13:40Z</time>
            </trkpt>
            <trkpt lon="99.634184" lat="12.919971">
                <ele>82.810000</ele>
                <time>2015-01-25T04:13:53Z</time>
            </trkpt>
            <trkpt lon="99.634191" lat="12.919988">
                <ele>82.810000</ele>
                <time>2015-01-25T04:14:01Z</time>
            </trkpt>
            <trkpt lon="99.634240" lat="12.919985">
                <ele>82.810000</ele>
                <time>2015-01-25T04:14:04Z</time>
            </trkpt>
            <trkpt lon="99.634268" lat="12.919968">
                <ele>82.330000</ele>
                <time>2015-01-25T04:14:05Z</time>
            </trkpt>
            <trkpt lon="99.634292" lat="12.919950">
                <ele>82.330000</ele>
                <time>2015-01-25T04:14:06Z</time>
            </trkpt>
            <trkpt lon="99.634314" lat="12.919928">
                <ele>82.330000</ele>
                <time>2015-01-25T04:14:07Z</time>
            </trkpt>
            <trkpt lon="99.634333" lat="12.919904">
                <ele>81.850000</ele>
                <time>2015-01-25T04:14:08Z</time>
            </trkpt>
            <trkpt lon="99.634352" lat="12.919883">
                <ele>81.370000</ele>
                <time>2015-01-25T04:14:09Z</time>
            </trkpt>
            <trkpt lon="99.634528" lat="12.919503">
                <ele>78.000000</ele>
                <time>2015-01-25T04:14:18Z</time>
            </trkpt>
            <trkpt lon="99.634539" lat="12.919436">
                <ele>77.520000</ele>
                <time>2015-01-25T04:14:19Z</time>
            </trkpt>
            <trkpt lon="99.634703" lat="12.918385">
                <ele>70.310000</ele>
                <time>2015-01-25T04:14:35Z</time>
            </trkpt>
            <trkpt lon="99.634740" lat="12.918142">
                <ele>70.790000</ele>
                <time>2015-01-25T04:14:41Z</time>
            </trkpt>
            <trkpt lon="99.634787" lat="12.917964">
                <ele>71.760000</ele>
                <time>2015-01-25T04:14:45Z</time>
            </trkpt>
            <trkpt lon="99.634809" lat="12.917922">
                <ele>71.760000</ele>
                <time>2015-01-25T04:14:46Z</time>
            </trkpt>
            <trkpt lon="99.635369" lat="12.917194">
                <ele>69.830000</ele>
                <time>2015-01-25T04:15:02Z</time>
            </trkpt>
            <trkpt lon="99.636089" lat="12.916304">
                <ele>67.430000</ele>
                <time>2015-01-25T04:15:22Z</time>
            </trkpt>
            <trkpt lon="99.636774" lat="12.915413">
                <ele>66.950000</ele>
                <time>2015-01-25T04:15:42Z</time>
            </trkpt>
            <trkpt lon="99.636934" lat="12.915258">
                <ele>66.950000</ele>
                <time>2015-01-25T04:15:46Z</time>
            </trkpt>
            <trkpt lon="99.636981" lat="12.915227">
                <ele>67.430000</ele>
                <time>2015-01-25T04:15:47Z</time>
            </trkpt>
            <trkpt lon="99.637031" lat="12.915200">
                <ele>67.430000</ele>
                <time>2015-01-25T04:15:48Z</time>
            </trkpt>
            <trkpt lon="99.637082" lat="12.915172">
                <ele>67.430000</ele>
                <time>2015-01-25T04:15:49Z</time>
            </trkpt>
            <trkpt lon="99.637126" lat="12.915144">
                <ele>67.430000</ele>
                <time>2015-01-25T04:15:50Z</time>
            </trkpt>
            <trkpt lon="99.637174" lat="12.915116">
                <ele>67.430000</ele>
                <time>2015-01-25T04:15:51Z</time>
            </trkpt>
            <trkpt lon="99.637231" lat="12.915090">
                <ele>67.430000</ele>
                <time>2015-01-25T04:15:52Z</time>
            </trkpt>
            <trkpt lon="99.637281" lat="12.915072">
                <ele>67.910000</ele>
                <time>2015-01-25T04:15:53Z</time>
            </trkpt>
            <trkpt lon="99.638067" lat="12.914812">
                <ele>69.350000</ele>
                <time>2015-01-25T04:16:10Z</time>
            </trkpt>
            <trkpt lon="99.638424" lat="12.914674">
                <ele>71.760000</ele>
                <time>2015-01-25T04:16:23Z</time>
            </trkpt>
            <trkpt lon="99.638576" lat="12.914607">
                <ele>73.680000</ele>
                <time>2015-01-25T04:16:33Z</time>
            </trkpt>
            <trkpt lon="99.638593" lat="12.914605">
                <ele>74.160000</ele>
                <time>2015-01-25T04:16:34Z</time>
            </trkpt>
            <trkpt lon="99.638608" lat="12.914599">
                <ele>74.160000</ele>
                <time>2015-01-25T04:16:35Z</time>
            </trkpt>
            <trkpt lon="99.638623" lat="12.914589">
                <ele>74.640000</ele>
                <time>2015-01-25T04:16:36Z</time>
            </trkpt>
            <trkpt lon="99.638640" lat="12.914578">
                <ele>74.640000</ele>
                <time>2015-01-25T04:16:37Z</time>
            </trkpt>
            <trkpt lon="99.638656" lat="12.914571">
                <ele>75.120000</ele>
                <time>2015-01-25T04:16:38Z</time>
            </trkpt>
            <trkpt lon="99.638943" lat="12.914392">
                <ele>77.520000</ele>
                <time>2015-01-25T04:16:53Z</time>
            </trkpt>
            <trkpt lon="99.639416" lat="12.914117">
                <ele>76.560000</ele>
                <time>2015-01-25T04:17:07Z</time>
            </trkpt>
            <trkpt lon="99.640015" lat="12.913677">
                <ele>73.200000</ele>
                <time>2015-01-25T04:17:16Z</time>
            </trkpt>
            <trkpt lon="99.640460" lat="12.912984">
                <ele>70.790000</ele>
                <time>2015-01-25T04:17:26Z</time>
            </trkpt>
            <trkpt lon="99.640942" lat="12.912135">
                <ele>69.830000</ele>
                <time>2015-01-25T04:17:42Z</time>
            </trkpt>
            <trkpt lon="99.641567" lat="12.911198">
                <ele>69.830000</ele>
                <time>2015-01-25T04:18:02Z</time>
            </trkpt>
            <trkpt lon="99.642240" lat="12.910397">
                <ele>68.870000</ele>
                <time>2015-01-25T04:18:20Z</time>
            </trkpt>
            <trkpt lon="99.642918" lat="12.909795">
                <ele>68.870000</ele>
                <time>2015-01-25T04:18:39Z</time>
            </trkpt>
            <trkpt lon="99.643571" lat="12.909341">
                <ele>68.870000</ele>
                <time>2015-01-25T04:18:56Z</time>
            </trkpt>
            <trkpt lon="99.644271" lat="12.908875">
                <ele>69.350000</ele>
                <time>2015-01-25T04:19:13Z</time>
            </trkpt>
            <trkpt lon="99.645044" lat="12.908351">
                <ele>68.870000</ele>
                <time>2015-01-25T04:19:31Z</time>
            </trkpt>
            <trkpt lon="99.645753" lat="12.907876">
                <ele>68.870000</ele>
                <time>2015-01-25T04:19:48Z</time>
            </trkpt>
            <trkpt lon="99.646499" lat="12.907409">
                <ele>70.310000</ele>
                <time>2015-01-25T04:20:06Z</time>
            </trkpt>
            <trkpt lon="99.647218" lat="12.906941">
                <ele>70.790000</ele>
                <time>2015-01-25T04:20:24Z</time>
            </trkpt>
            <trkpt lon="99.648054" lat="12.906628">
                <ele>70.790000</ele>
                <time>2015-01-25T04:20:41Z</time>
            </trkpt>
            <trkpt lon="99.648504" lat="12.906560">
                <ele>71.270000</ele>
                <time>2015-01-25T04:20:50Z</time>
            </trkpt>
            <trkpt lon="99.648548" lat="12.906547">
                <ele>71.760000</ele>
                <time>2015-01-25T04:20:51Z</time>
            </trkpt>
            <trkpt lon="99.648968" lat="12.906448">
                <ele>72.240000</ele>
                <time>2015-01-25T04:21:02Z</time>
            </trkpt>
            <trkpt lon="99.648985" lat="12.906422">
                <ele>72.240000</ele>
                <time>2015-01-25T04:21:03Z</time>
            </trkpt>
            <trkpt lon="99.649033" lat="12.906280">
                <ele>72.240000</ele>
                <time>2015-01-25T04:21:12Z</time>
            </trkpt>
            <trkpt lon="99.649083" lat="12.906284">
                <ele>75.600000</ele>
                <time>2015-01-25T04:21:24Z</time>
            </trkpt>
            <trkpt lon="99.649093" lat="12.906296">
                <ele>76.560000</ele>
                <time>2015-01-25T04:21:36Z</time>
            </trkpt>
            <trkpt lon="99.649095" lat="12.906318">
                <ele>79.930000</ele>
                <time>2015-01-25T04:21:48Z</time>
            </trkpt>
            <trkpt lon="99.649097" lat="12.906294">
                <ele>81.850000</ele>
                <time>2015-01-25T04:22:19Z</time>
            </trkpt>
            <trkpt lon="99.649082" lat="12.906317">
                <ele>85.210000</ele>
                <time>2015-01-25T04:22:54Z</time>
            </trkpt>
            <trkpt lon="99.649079" lat="12.906304">
                <ele>87.620000</ele>
                <time>2015-01-25T04:23:29Z</time>
            </trkpt>
            <trkpt lon="99.649072" lat="12.906302">
                <ele>88.100000</ele>
                <time>2015-01-25T04:24:13Z</time>
            </trkpt>
            <trkpt lon="99.649045" lat="12.906308">
                <ele>95.310000</ele>
                <time>2015-01-25T04:24:54Z</time>
            </trkpt>
            <trkpt lon="99.649044" lat="12.906331">
                <ele>95.790000</ele>
                <time>2015-01-25T04:25:35Z</time>
            </trkpt>
            <trkpt lon="99.649094" lat="12.906293">
                <ele>88.580000</ele>
                <time>2015-01-25T04:26:24Z</time>
            </trkpt>
            <trkpt lon="99.649087" lat="12.906302">
                <ele>87.620000</ele>
                <time>2015-01-25T04:27:02Z</time>
            </trkpt>
            <trkpt lon="99.649059" lat="12.906325">
                <ele>88.580000</ele>
                <time>2015-01-25T04:27:54Z</time>
            </trkpt>
            <trkpt lon="99.649073" lat="12.906314">
                <ele>86.660000</ele>
                <time>2015-01-25T04:28:36Z</time>
            </trkpt>
            <trkpt lon="99.649088" lat="12.906304">
                <ele>82.330000</ele>
                <time>2015-01-25T04:29:29Z</time>
            </trkpt>
            <trkpt lon="99.649082" lat="12.906303">
                <ele>82.330000</ele>
                <time>2015-01-25T04:30:11Z</time>
            </trkpt>
            <trkpt lon="99.649088" lat="12.906293">
                <ele>83.770000</ele>
                <time>2015-01-25T04:30:45Z</time>
            </trkpt>
            <trkpt lon="99.649075" lat="12.906311">
                <ele>82.810000</ele>
                <time>2015-01-25T04:31:23Z</time>
            </trkpt>
            <trkpt lon="99.649088" lat="12.906310">
                <ele>81.370000</ele>
                <time>2015-01-25T04:32:09Z</time>
            </trkpt>
            <trkpt lon="99.649121" lat="12.906308">
                <ele>78.480000</ele>
                <time>2015-01-25T04:32:49Z</time>
            </trkpt>
            <trkpt lon="99.649117" lat="12.906318">
                <ele>76.080000</ele>
                <time>2015-01-25T04:33:32Z</time>
            </trkpt>
            <trkpt lon="99.649101" lat="12.906316">
                <ele>78.480000</ele>
                <time>2015-01-25T04:34:19Z</time>
            </trkpt>
            <trkpt lon="99.649111" lat="12.906298">
                <ele>77.040000</ele>
                <time>2015-01-25T04:35:13Z</time>
            </trkpt>
            <trkpt lon="99.649105" lat="12.906292">
                <ele>76.080000</ele>
                <time>2015-01-25T04:36:04Z</time>
            </trkpt>
            <trkpt lon="99.649092" lat="12.906318">
                <ele>78.000000</ele>
                <time>2015-01-25T04:36:42Z</time>
            </trkpt>
            <trkpt lon="99.649108" lat="12.906307">
                <ele>74.160000</ele>
                <time>2015-01-25T04:37:28Z</time>
            </trkpt>
            <trkpt lon="99.649119" lat="12.906316">
                <ele>75.600000</ele>
                <time>2015-01-25T04:38:11Z</time>
            </trkpt>
            <trkpt lon="99.649121" lat="12.906317">
                <ele>75.600000</ele>
                <time>2015-01-25T04:38:56Z</time>
            </trkpt>
            <trkpt lon="99.649110" lat="12.906311">
                <ele>75.120000</ele>
                <time>2015-01-25T04:39:32Z</time>
            </trkpt>
            <trkpt lon="99.649115" lat="12.906308">
                <ele>76.560000</ele>
                <time>2015-01-25T04:40:17Z</time>
            </trkpt>
            <trkpt lon="99.649111" lat="12.906325">
                <ele>77.040000</ele>
                <time>2015-01-25T04:40:55Z</time>
            </trkpt>
            <trkpt lon="99.649116" lat="12.906328">
                <ele>75.120000</ele>
                <time>2015-01-25T04:41:17Z</time>
            </trkpt>
            <trkpt lon="99.649119" lat="12.906312">
                <ele>74.640000</ele>
                <time>2015-01-25T04:41:53Z</time>
            </trkpt>
            <trkpt lon="99.649110" lat="12.906305">
                <ele>73.680000</ele>
                <time>2015-01-25T04:42:38Z</time>
            </trkpt>
            <trkpt lon="99.649114" lat="12.906298">
                <ele>73.680000</ele>
                <time>2015-01-25T04:42:52Z</time>
            </trkpt>
            <trkpt lon="99.649152" lat="12.906296">
                <ele>73.680000</ele>
                <time>2015-01-25T04:43:00Z</time>
            </trkpt>
            <trkpt lon="99.649170" lat="12.906296">
                <ele>73.680000</ele>
                <time>2015-01-25T04:43:01Z</time>
            </trkpt>
            <trkpt lon="99.649193" lat="12.906295">
                <ele>73.200000</ele>
                <time>2015-01-25T04:43:02Z</time>
            </trkpt>
            <trkpt lon="99.649522" lat="12.906290">
                <ele>73.200000</ele>
                <time>2015-01-25T04:43:15Z</time>
            </trkpt>
            <trkpt lon="99.650002" lat="12.906307">
                <ele>71.760000</ele>
                <time>2015-01-25T04:43:28Z</time>
            </trkpt>
            <trkpt lon="99.650510" lat="12.906266">
                <ele>70.310000</ele>
                <time>2015-01-25T04:43:42Z</time>
            </trkpt>
            <trkpt lon="99.650967" lat="12.906305">
                <ele>69.830000</ele>
                <time>2015-01-25T04:43:54Z</time>
            </trkpt>
            <trkpt lon="99.651235" lat="12.906403">
                <ele>70.310000</ele>
                <time>2015-01-25T04:44:01Z</time>
            </trkpt>
            <trkpt lon="99.651456" lat="12.906474">
                <ele>70.790000</ele>
                <time>2015-01-25T04:44:07Z</time>
            </trkpt>
            <trkpt lon="99.651494" lat="12.906491">
                <ele>70.790000</ele>
                <time>2015-01-25T04:44:08Z</time>
            </trkpt>
            <trkpt lon="99.651529" lat="12.906510">
                <ele>70.790000</ele>
                <time>2015-01-25T04:44:09Z</time>
            </trkpt>
            <trkpt lon="99.651562" lat="12.906533">
                <ele>70.790000</ele>
                <time>2015-01-25T04:44:10Z</time>
            </trkpt>
            <trkpt lon="99.651594" lat="12.906556">
                <ele>70.790000</ele>
                <time>2015-01-25T04:44:11Z</time>
            </trkpt>
            <trkpt lon="99.651838" lat="12.906773">
                <ele>70.310000</ele>
                <time>2015-01-25T04:44:20Z</time>
            </trkpt>
            <trkpt lon="99.651864" lat="12.906769">
                <ele>70.310000</ele>
                <time>2015-01-25T04:44:21Z</time>
            </trkpt>
            <trkpt lon="99.651918" lat="12.906721">
                <ele>70.310000</ele>
                <time>2015-01-25T04:44:23Z</time>
            </trkpt>
            <trkpt lon="99.652279" lat="12.906358">
                <ele>70.310000</ele>
                <time>2015-01-25T04:44:33Z</time>
            </trkpt>
            <trkpt lon="99.652440" lat="12.906078">
                <ele>69.830000</ele>
                <time>2015-01-25T04:44:38Z</time>
            </trkpt>
            <trkpt lon="99.652439" lat="12.905878">
                <ele>68.870000</ele>
                <time>2015-01-25T04:44:42Z</time>
            </trkpt>
            <trkpt lon="99.652375" lat="12.905739">
                <ele>68.390000</ele>
                <time>2015-01-25T04:44:45Z</time>
            </trkpt>
            <trkpt lon="99.652436" lat="12.905588">
                <ele>68.870000</ele>
                <time>2015-01-25T04:44:49Z</time>
            </trkpt>
            <trkpt lon="99.653162" lat="12.905217">
                <ele>69.830000</ele>
                <time>2015-01-25T04:45:06Z</time>
            </trkpt>
            <trkpt lon="99.653628" lat="12.904936">
                <ele>68.870000</ele>
                <time>2015-01-25T04:45:20Z</time>
            </trkpt>
            <trkpt lon="99.653466" lat="12.904399">
                <ele>67.910000</ele>
                <time>2015-01-25T04:45:33Z</time>
            </trkpt>
            <trkpt lon="99.653431" lat="12.904271">
                <ele>67.430000</ele>
                <time>2015-01-25T04:45:36Z</time>
            </trkpt>
            <trkpt lon="99.653273" lat="12.903514">
                <ele>64.070000</ele>
                <time>2015-01-25T04:45:52Z</time>
            </trkpt>
            <trkpt lon="99.653115" lat="12.902704">
                <ele>63.100000</ele>
                <time>2015-01-25T04:46:08Z</time>
            </trkpt>
            <trkpt lon="99.653086" lat="12.902569">
                <ele>63.100000</ele>
                <time>2015-01-25T04:46:11Z</time>
            </trkpt>
            <trkpt lon="99.653056" lat="12.902448">
                <ele>62.620000</ele>
                <time>2015-01-25T04:46:14Z</time>
            </trkpt>
            <trkpt lon="99.653064" lat="12.902410">
                <ele>62.140000</ele>
                <time>2015-01-25T04:46:15Z</time>
            </trkpt>
            <trkpt lon="99.653068" lat="12.902370">
                <ele>62.140000</ele>
                <time>2015-01-25T04:46:16Z</time>
            </trkpt>
            <trkpt lon="99.653063" lat="12.902329">
                <ele>62.620000</ele>
                <time>2015-01-25T04:46:17Z</time>
            </trkpt>
            <trkpt lon="99.653050" lat="12.902287">
                <ele>62.620000</ele>
                <time>2015-01-25T04:46:18Z</time>
            </trkpt>
            <trkpt lon="99.653027" lat="12.902245">
                <ele>62.620000</ele>
                <time>2015-01-25T04:46:19Z</time>
            </trkpt>
            <trkpt lon="99.653000" lat="12.902202">
                <ele>62.620000</ele>
                <time>2015-01-25T04:46:20Z</time>
            </trkpt>
            <trkpt lon="99.652652" lat="12.901693">
                <ele>62.140000</ele>
                <time>2015-01-25T04:46:32Z</time>
            </trkpt>
            <trkpt lon="99.652615" lat="12.901665">
                <ele>61.660000</ele>
                <time>2015-01-25T04:46:33Z</time>
            </trkpt>
            <trkpt lon="99.652573" lat="12.901648">
                <ele>61.660000</ele>
                <time>2015-01-25T04:46:34Z</time>
            </trkpt>
            <trkpt lon="99.652527" lat="12.901644">
                <ele>61.660000</ele>
                <time>2015-01-25T04:46:35Z</time>
            </trkpt>
            <trkpt lon="99.652486" lat="12.901649">
                <ele>61.660000</ele>
                <time>2015-01-25T04:46:36Z</time>
            </trkpt>
            <trkpt lon="99.652445" lat="12.901663">
                <ele>61.660000</ele>
                <time>2015-01-25T04:46:37Z</time>
            </trkpt>
            <trkpt lon="99.652408" lat="12.901683">
                <ele>61.660000</ele>
                <time>2015-01-25T04:46:38Z</time>
            </trkpt>
            <trkpt lon="99.652370" lat="12.901703">
                <ele>61.180000</ele>
                <time>2015-01-25T04:46:39Z</time>
            </trkpt>
            <trkpt lon="99.651947" lat="12.901862">
                <ele>60.220000</ele>
                <time>2015-01-25T04:46:49Z</time>
            </trkpt>
            <trkpt lon="99.651920" lat="12.901841">
                <ele>60.220000</ele>
                <time>2015-01-25T04:46:50Z</time>
            </trkpt>
            <trkpt lon="99.651900" lat="12.901810">
                <ele>60.220000</ele>
                <time>2015-01-25T04:46:51Z</time>
            </trkpt>
            <trkpt lon="99.651884" lat="12.901776">
                <ele>60.220000</ele>
                <time>2015-01-25T04:46:52Z</time>
            </trkpt>
            <trkpt lon="99.651870" lat="12.901738">
                <ele>60.220000</ele>
                <time>2015-01-25T04:46:53Z</time>
            </trkpt>
            <trkpt lon="99.651638" lat="12.901221">
                <ele>61.660000</ele>
                <time>2015-01-25T04:47:07Z</time>
            </trkpt>
            <trkpt lon="99.651469" lat="12.900865">
                <ele>63.580000</ele>
                <time>2015-01-25T04:47:20Z</time>
            </trkpt>
            <trkpt lon="99.651243" lat="12.900407">
                <ele>64.070000</ele>
                <time>2015-01-25T04:47:37Z</time>
            </trkpt>
            <trkpt lon="99.651016" lat="12.899933">
                <ele>64.550000</ele>
                <time>2015-01-25T04:47:51Z</time>
            </trkpt>
            <trkpt lon="99.650885" lat="12.899568">
                <ele>64.550000</ele>
                <time>2015-01-25T04:48:02Z</time>
            </trkpt>
            <trkpt lon="99.650860" lat="12.899404">
                <ele>64.070000</ele>
                <time>2015-01-25T04:48:07Z</time>
            </trkpt>
            <trkpt lon="99.650740" lat="12.899101">
                <ele>62.620000</ele>
                <time>2015-01-25T04:48:20Z</time>
            </trkpt>
            <trkpt lon="99.650720" lat="12.898946">
                <ele>61.180000</ele>
                <time>2015-01-25T04:48:31Z</time>
            </trkpt>
            <trkpt lon="99.650720" lat="12.898746">
                <ele>58.780000</ele>
                <time>2015-01-25T04:48:42Z</time>
            </trkpt>
            <trkpt lon="99.650719" lat="12.898570">
                <ele>59.260000</ele>
                <time>2015-01-25T04:48:53Z</time>
            </trkpt>
            <trkpt lon="99.650788" lat="12.898261">
                <ele>62.620000</ele>
                <time>2015-01-25T04:49:07Z</time>
            </trkpt>
            <trkpt lon="99.651074" lat="12.898158">
                <ele>63.580000</ele>
                <time>2015-01-25T04:49:20Z</time>
            </trkpt>
            <trkpt lon="99.651267" lat="12.898032">
                <ele>63.580000</ele>
                <time>2015-01-25T04:49:31Z</time>
            </trkpt>
            <trkpt lon="99.651320" lat="12.898003">
                <ele>63.580000</ele>
                <time>2015-01-25T04:49:34Z</time>
            </trkpt>
            <trkpt lon="99.651338" lat="12.898005">
                <ele>63.580000</ele>
                <time>2015-01-25T04:49:35Z</time>
            </trkpt>
            <trkpt lon="99.651358" lat="12.898013">
                <ele>64.070000</ele>
                <time>2015-01-25T04:49:36Z</time>
            </trkpt>
            <trkpt lon="99.651377" lat="12.898024">
                <ele>64.070000</ele>
                <time>2015-01-25T04:49:37Z</time>
            </trkpt>
            <trkpt lon="99.651393" lat="12.898035">
                <ele>64.550000</ele>
                <time>2015-01-25T04:49:38Z</time>
            </trkpt>
            <trkpt lon="99.651406" lat="12.898046">
                <ele>65.030000</ele>
                <time>2015-01-25T04:49:39Z</time>
            </trkpt>
            <trkpt lon="99.651701" lat="12.898282">
                <ele>69.830000</ele>
                <time>2015-01-25T04:49:56Z</time>
            </trkpt>
            <trkpt lon="99.651961" lat="12.898507">
                <ele>74.160000</ele>
                <time>2015-01-25T04:50:12Z</time>
            </trkpt>
            <trkpt lon="99.652297" lat="12.898794">
                <ele>74.640000</ele>
                <time>2015-01-25T04:50:34Z</time>
            </trkpt>
            <trkpt lon="99.652467" lat="12.898940">
                <ele>76.080000</ele>
                <time>2015-01-25T04:50:49Z</time>
            </trkpt>
            <trkpt lon="99.652552" lat="12.898998">
                <ele>77.040000</ele>
                <time>2015-01-25T04:50:57Z</time>
            </trkpt>
            <trkpt lon="99.652567" lat="12.898998">
                <ele>77.040000</ele>
                <time>2015-01-25T04:50:58Z</time>
            </trkpt>
            <trkpt lon="99.652580" lat="12.898993">
                <ele>77.520000</ele>
                <time>2015-01-25T04:50:59Z</time>
            </trkpt>
            <trkpt lon="99.652591" lat="12.898985">
                <ele>77.520000</ele>
                <time>2015-01-25T04:51:00Z</time>
            </trkpt>
            <trkpt lon="99.652604" lat="12.898973">
                <ele>77.520000</ele>
                <time>2015-01-25T04:51:01Z</time>
            </trkpt>
            <trkpt lon="99.652619" lat="12.898961">
                <ele>77.520000</ele>
                <time>2015-01-25T04:51:02Z</time>
            </trkpt>
            <trkpt lon="99.652635" lat="12.898950">
                <ele>77.520000</ele>
                <time>2015-01-25T04:51:03Z</time>
            </trkpt>
            <trkpt lon="99.652650" lat="12.898936">
                <ele>77.520000</ele>
                <time>2015-01-25T04:51:04Z</time>
            </trkpt>
            <trkpt lon="99.652665" lat="12.898919">
                <ele>77.520000</ele>
                <time>2015-01-25T04:51:05Z</time>
            </trkpt>
            <trkpt lon="99.652681" lat="12.898901">
                <ele>77.040000</ele>
                <time>2015-01-25T04:51:06Z</time>
            </trkpt>
            <trkpt lon="99.652695" lat="12.898881">
                <ele>77.040000</ele>
                <time>2015-01-25T04:51:07Z</time>
            </trkpt>
            <trkpt lon="99.652711" lat="12.898860">
                <ele>77.040000</ele>
                <time>2015-01-25T04:51:08Z</time>
            </trkpt>
            <trkpt lon="99.653087" lat="12.898438">
                <ele>73.680000</ele>
                <time>2015-01-25T04:51:25Z</time>
            </trkpt>
            <trkpt lon="99.653269" lat="12.898282">
                <ele>72.720000</ele>
                <time>2015-01-25T04:51:33Z</time>
            </trkpt>
            <trkpt lon="99.653290" lat="12.898287">
                <ele>72.720000</ele>
                <time>2015-01-25T04:51:34Z</time>
            </trkpt>
            <trkpt lon="99.653308" lat="12.898298">
                <ele>73.200000</ele>
                <time>2015-01-25T04:51:35Z</time>
            </trkpt>
            <trkpt lon="99.653323" lat="12.898313">
                <ele>73.200000</ele>
                <time>2015-01-25T04:51:36Z</time>
            </trkpt>
            <trkpt lon="99.653338" lat="12.898327">
                <ele>73.200000</ele>
                <time>2015-01-25T04:51:37Z</time>
            </trkpt>
            <trkpt lon="99.653350" lat="12.898339">
                <ele>73.680000</ele>
                <time>2015-01-25T04:51:38Z</time>
            </trkpt>
            <trkpt lon="99.653360" lat="12.898349">
                <ele>73.680000</ele>
                <time>2015-01-25T04:51:39Z</time>
            </trkpt>
            <trkpt lon="99.653371" lat="12.898358">
                <ele>73.680000</ele>
                <time>2015-01-25T04:51:40Z</time>
            </trkpt>
            <trkpt lon="99.653382" lat="12.898368">
                <ele>73.680000</ele>
                <time>2015-01-25T04:51:41Z</time>
            </trkpt>
            <trkpt lon="99.653391" lat="12.898379">
                <ele>74.160000</ele>
                <time>2015-01-25T04:51:42Z</time>
            </trkpt>
            <trkpt lon="99.653401" lat="12.898388">
                <ele>73.680000</ele>
                <time>2015-01-25T04:51:43Z</time>
            </trkpt>
            <trkpt lon="99.653411" lat="12.898396">
                <ele>73.680000</ele>
                <time>2015-01-25T04:51:44Z</time>
            </trkpt>
            <trkpt lon="99.653569" lat="12.898519">
                <ele>78.480000</ele>
                <time>2015-01-25T04:52:01Z</time>
            </trkpt>
            <trkpt lon="99.653600" lat="12.898534">
                <ele>79.450000</ele>
                <time>2015-01-25T04:52:04Z</time>
            </trkpt>
            <trkpt lon="99.653815" lat="12.898607">
                <ele>81.850000</ele>
                <time>2015-01-25T04:52:20Z</time>
            </trkpt>
            <trkpt lon="99.653929" lat="12.898841">
                <ele>83.770000</ele>
                <time>2015-01-25T04:52:35Z</time>
            </trkpt>
            <trkpt lon="99.653843" lat="12.899178">
                <ele>87.140000</ele>
                <time>2015-01-25T04:52:49Z</time>
            </trkpt>
            <trkpt lon="99.653575" lat="12.899535">
                <ele>84.730000</ele>
                <time>2015-01-25T04:53:02Z</time>
            </trkpt>
            <trkpt lon="99.653493" lat="12.899614">
                <ele>85.690000</ele>
                <time>2015-01-25T04:53:09Z</time>
            </trkpt>
            <trkpt lon="99.653497" lat="12.899630">
                <ele>85.690000</ele>
                <time>2015-01-25T04:53:10Z</time>
            </trkpt>
            <trkpt lon="99.653599" lat="12.899873">
                <ele>80.890000</ele>
                <time>2015-01-25T04:53:21Z</time>
            </trkpt>
            <trkpt lon="99.653728" lat="12.900132">
                <ele>73.200000</ele>
                <time>2015-01-25T04:53:34Z</time>
            </trkpt>
            <trkpt lon="99.653823" lat="12.900177">
                <ele>71.270000</ele>
                <time>2015-01-25T04:53:38Z</time>
            </trkpt>
            <trkpt lon="99.653870" lat="12.900175">
                <ele>71.270000</ele>
                <time>2015-01-25T04:53:39Z</time>
            </trkpt>
            <trkpt lon="99.653913" lat="12.900161">
                <ele>71.270000</ele>
                <time>2015-01-25T04:53:40Z</time>
            </trkpt>
            <trkpt lon="99.654152" lat="12.900118">
                <ele>70.790000</ele>
                <time>2015-01-25T04:53:49Z</time>
            </trkpt>
            <trkpt lon="99.654177" lat="12.900105">
                <ele>70.790000</ele>
                <time>2015-01-25T04:53:50Z</time>
            </trkpt>
            <trkpt lon="99.654200" lat="12.900086">
                <ele>70.790000</ele>
                <time>2015-01-25T04:53:51Z</time>
            </trkpt>
            <trkpt lon="99.654517" lat="12.899957">
                <ele>69.830000</ele>
                <time>2015-01-25T04:54:01Z</time>
            </trkpt>
            <trkpt lon="99.654559" lat="12.899947">
                <ele>69.830000</ele>
                <time>2015-01-25T04:54:02Z</time>
            </trkpt>
            <trkpt lon="99.654601" lat="12.899940">
                <ele>69.350000</ele>
                <time>2015-01-25T04:54:03Z</time>
            </trkpt>
            <trkpt lon="99.654646" lat="12.899939">
                <ele>69.350000</ele>
                <time>2015-01-25T04:54:04Z</time>
            </trkpt>
            <trkpt lon="99.654693" lat="12.899940">
                <ele>68.870000</ele>
                <time>2015-01-25T04:54:05Z</time>
            </trkpt>
            <trkpt lon="99.655527" lat="12.899886">
                <ele>66.470000</ele>
                <time>2015-01-25T04:54:22Z</time>
            </trkpt>
            <trkpt lon="99.656458" lat="12.899743">
                <ele>67.430000</ele>
                <time>2015-01-25T04:54:40Z</time>
            </trkpt>
            <trkpt lon="99.657173" lat="12.899448">
                <ele>68.870000</ele>
                <time>2015-01-25T04:54:59Z</time>
            </trkpt>
            <trkpt lon="99.657725" lat="12.899185">
                <ele>70.310000</ele>
                <time>2015-01-25T04:55:16Z</time>
            </trkpt>
            <trkpt lon="99.658264" lat="12.898947">
                <ele>70.310000</ele>
                <time>2015-01-25T04:55:32Z</time>
            </trkpt>
            <trkpt lon="99.658791" lat="12.898747">
                <ele>68.390000</ele>
                <time>2015-01-25T04:55:45Z</time>
            </trkpt>
            <trkpt lon="99.659117" lat="12.898717">
                <ele>66.470000</ele>
                <time>2015-01-25T04:55:53Z</time>
            </trkpt>
            <trkpt lon="99.659586" lat="12.898730">
                <ele>65.030000</ele>
                <time>2015-01-25T04:56:05Z</time>
            </trkpt>
            <trkpt lon="99.660040" lat="12.898748">
                <ele>65.510000</ele>
                <time>2015-01-25T04:56:18Z</time>
            </trkpt>
            <trkpt lon="99.660443" lat="12.898733">
                <ele>66.950000</ele>
                <time>2015-01-25T04:56:31Z</time>
            </trkpt>
            <trkpt lon="99.660919" lat="12.898713">
                <ele>65.990000</ele>
                <time>2015-01-25T04:56:43Z</time>
            </trkpt>
            <trkpt lon="99.661143" lat="12.898452">
                <ele>64.550000</ele>
                <time>2015-01-25T04:56:51Z</time>
            </trkpt>
            <trkpt lon="99.661162" lat="12.898359">
                <ele>64.070000</ele>
                <time>2015-01-25T04:56:53Z</time>
            </trkpt>
            <trkpt lon="99.661205" lat="12.898252">
                <ele>63.580000</ele>
                <time>2015-01-25T04:56:56Z</time>
            </trkpt>
            <trkpt lon="99.661204" lat="12.898031">
                <ele>62.620000</ele>
                <time>2015-01-25T04:57:02Z</time>
            </trkpt>
            <trkpt lon="99.661235" lat="12.897956">
                <ele>62.620000</ele>
                <time>2015-01-25T04:57:04Z</time>
            </trkpt>
            <trkpt lon="99.661580" lat="12.897718">
                <ele>62.620000</ele>
                <time>2015-01-25T04:57:15Z</time>
            </trkpt>
            <trkpt lon="99.662115" lat="12.897434">
                <ele>63.100000</ele>
                <time>2015-01-25T04:57:29Z</time>
            </trkpt>
            <trkpt lon="99.662632" lat="12.897197">
                <ele>63.580000</ele>
                <time>2015-01-25T04:57:43Z</time>
            </trkpt>
            <trkpt lon="99.662706" lat="12.897161">
                <ele>64.070000</ele>
                <time>2015-01-25T04:57:45Z</time>
            </trkpt>
            <trkpt lon="99.662737" lat="12.897135">
                <ele>64.070000</ele>
                <time>2015-01-25T04:57:46Z</time>
            </trkpt>
            <trkpt lon="99.662772" lat="12.897115">
                <ele>64.070000</ele>
                <time>2015-01-25T04:57:47Z</time>
            </trkpt>
            <trkpt lon="99.663212" lat="12.896910">
                <ele>65.990000</ele>
                <time>2015-01-25T04:58:00Z</time>
            </trkpt>
            <trkpt lon="99.663635" lat="12.896704">
                <ele>66.950000</ele>
                <time>2015-01-25T04:58:13Z</time>
            </trkpt>
            <trkpt lon="99.664110" lat="12.896471">
                <ele>67.430000</ele>
                <time>2015-01-25T04:58:26Z</time>
            </trkpt>
            <trkpt lon="99.664573" lat="12.896249">
                <ele>67.910000</ele>
                <time>2015-01-25T04:58:41Z</time>
            </trkpt>
            <trkpt lon="99.664981" lat="12.896055">
                <ele>66.950000</ele>
                <time>2015-01-25T04:58:55Z</time>
            </trkpt>
            <trkpt lon="99.665318" lat="12.895893">
                <ele>69.350000</ele>
                <time>2015-01-25T04:59:09Z</time>
            </trkpt>
            <trkpt lon="99.665699" lat="12.895733">
                <ele>72.240000</ele>
                <time>2015-01-25T04:59:27Z</time>
            </trkpt>
            <trkpt lon="99.665851" lat="12.895630">
                <ele>73.200000</ele>
                <time>2015-01-25T04:59:39Z</time>
            </trkpt>
            <trkpt lon="99.665863" lat="12.895648">
                <ele>73.200000</ele>
                <time>2015-01-25T05:00:13Z</time>
            </trkpt>
            <trkpt lon="99.665847" lat="12.895633">
                <ele>73.680000</ele>
                <time>2015-01-25T05:00:41Z</time>
            </trkpt>
            <trkpt lon="99.665868" lat="12.895632">
                <ele>73.680000</ele>
                <time>2015-01-25T05:01:13Z</time>
            </trkpt>
            <trkpt lon="99.665936" lat="12.895633">
                <ele>73.200000</ele>
                <time>2015-01-25T05:01:18Z</time>
            </trkpt>
            <trkpt lon="99.665953" lat="12.895645">
                <ele>73.200000</ele>
                <time>2015-01-25T05:01:19Z</time>
            </trkpt>
            <trkpt lon="99.665966" lat="12.895664">
                <ele>73.680000</ele>
                <time>2015-01-25T05:01:20Z</time>
            </trkpt>
            <trkpt lon="99.665979" lat="12.895683">
                <ele>73.680000</ele>
                <time>2015-01-25T05:01:21Z</time>
            </trkpt>
            <trkpt lon="99.665995" lat="12.895705">
                <ele>73.680000</ele>
                <time>2015-01-25T05:01:22Z</time>
            </trkpt>
            <trkpt lon="99.666289" lat="12.896189">
                <ele>71.760000</ele>
                <time>2015-01-25T05:01:37Z</time>
            </trkpt>
            <trkpt lon="99.666369" lat="12.896404">
                <ele>71.270000</ele>
                <time>2015-01-25T05:01:44Z</time>
            </trkpt>
            <trkpt lon="99.666367" lat="12.896432">
                <ele>71.270000</ele>
                <time>2015-01-25T05:01:45Z</time>
            </trkpt>
            <trkpt lon="99.666360" lat="12.896459">
                <ele>71.270000</ele>
                <time>2015-01-25T05:01:46Z</time>
            </trkpt>
            <trkpt lon="99.666345" lat="12.896485">
                <ele>71.270000</ele>
                <time>2015-01-25T05:01:47Z</time>
            </trkpt>
            <trkpt lon="99.666326" lat="12.896511">
                <ele>71.270000</ele>
                <time>2015-01-25T05:01:48Z</time>
            </trkpt>
            <trkpt lon="99.666308" lat="12.896538">
                <ele>71.270000</ele>
                <time>2015-01-25T05:01:49Z</time>
            </trkpt>
            <trkpt lon="99.666101" lat="12.896715">
                <ele>72.240000</ele>
                <time>2015-01-25T05:01:56Z</time>
            </trkpt>
            <trkpt lon="99.665562" lat="12.897047">
                <ele>72.240000</ele>
                <time>2015-01-25T05:02:11Z</time>
            </trkpt>
            <trkpt lon="99.665230" lat="12.897385">
                <ele>72.720000</ele>
                <time>2015-01-25T05:02:24Z</time>
            </trkpt>
            <trkpt lon="99.665182" lat="12.898050">
                <ele>74.160000</ele>
                <time>2015-01-25T05:02:43Z</time>
            </trkpt>
            <trkpt lon="99.665120" lat="12.898687">
                <ele>75.600000</ele>
                <time>2015-01-25T05:03:00Z</time>
            </trkpt>
            <trkpt lon="99.665050" lat="12.899481">
                <ele>76.080000</ele>
                <time>2015-01-25T05:03:18Z</time>
            </trkpt>
            <trkpt lon="99.665023" lat="12.899800">
                <ele>75.600000</ele>
                <time>2015-01-25T05:03:25Z</time>
            </trkpt>
            <trkpt lon="99.665016" lat="12.899847">
                <ele>75.600000</ele>
                <time>2015-01-25T05:03:26Z</time>
            </trkpt>
            <trkpt lon="99.664959" lat="12.900397">
                <ele>74.160000</ele>
                <time>2015-01-25T05:03:37Z</time>
            </trkpt>
            <trkpt lon="99.664960" lat="12.900443">
                <ele>74.160000</ele>
                <time>2015-01-25T05:03:38Z</time>
            </trkpt>
            <trkpt lon="99.664970" lat="12.900489">
                <ele>74.160000</ele>
                <time>2015-01-25T05:03:39Z</time>
            </trkpt>
            <trkpt lon="99.664988" lat="12.900528">
                <ele>73.680000</ele>
                <time>2015-01-25T05:03:40Z</time>
            </trkpt>
            <trkpt lon="99.665011" lat="12.900560">
                <ele>73.680000</ele>
                <time>2015-01-25T05:03:41Z</time>
            </trkpt>
            <trkpt lon="99.665041" lat="12.900588">
                <ele>74.160000</ele>
                <time>2015-01-25T05:03:42Z</time>
            </trkpt>
            <trkpt lon="99.665073" lat="12.900612">
                <ele>74.160000</ele>
                <time>2015-01-25T05:03:43Z</time>
            </trkpt>
            <trkpt lon="99.665106" lat="12.900632">
                <ele>74.160000</ele>
                <time>2015-01-25T05:03:44Z</time>
            </trkpt>
            <trkpt lon="99.665140" lat="12.900651">
                <ele>74.640000</ele>
                <time>2015-01-25T05:03:45Z</time>
            </trkpt>
            <trkpt lon="99.665720" lat="12.900844">
                <ele>75.600000</ele>
                <time>2015-01-25T05:04:01Z</time>
            </trkpt>
            <trkpt lon="99.665973" lat="12.900936">
                <ele>77.040000</ele>
                <time>2015-01-25T05:04:11Z</time>
            </trkpt>
            <trkpt lon="99.665985" lat="12.900956">
                <ele>77.040000</ele>
                <time>2015-01-25T05:04:12Z</time>
            </trkpt>
            <trkpt lon="99.665989" lat="12.900975">
                <ele>77.040000</ele>
                <time>2015-01-25T05:04:13Z</time>
            </trkpt>
            <trkpt lon="99.665992" lat="12.900997">
                <ele>77.040000</ele>
                <time>2015-01-25T05:04:14Z</time>
            </trkpt>
            <trkpt lon="99.665993" lat="12.901022">
                <ele>77.040000</ele>
                <time>2015-01-25T05:04:15Z</time>
            </trkpt>
            <trkpt lon="99.665994" lat="12.901048">
                <ele>77.040000</ele>
                <time>2015-01-25T05:04:16Z</time>
            </trkpt>
            <trkpt lon="99.665958" lat="12.901571">
                <ele>78.970000</ele>
                <time>2015-01-25T05:04:32Z</time>
            </trkpt>
            <trkpt lon="99.665924" lat="12.902174">
                <ele>80.890000</ele>
                <time>2015-01-25T05:04:50Z</time>
            </trkpt>
            <trkpt lon="99.665944" lat="12.902987">
                <ele>81.370000</ele>
                <time>2015-01-25T05:05:08Z</time>
            </trkpt>
            <trkpt lon="99.666077" lat="12.903409">
                <ele>81.370000</ele>
                <time>2015-01-25T05:05:17Z</time>
            </trkpt>
            <trkpt lon="99.666357" lat="12.904097">
                <ele>81.370000</ele>
                <time>2015-01-25T05:05:35Z</time>
            </trkpt>
            <trkpt lon="99.666371" lat="12.904152">
                <ele>81.370000</ele>
                <time>2015-01-25T05:05:37Z</time>
            </trkpt>
            <trkpt lon="99.666357" lat="12.904175">
                <ele>81.370000</ele>
                <time>2015-01-25T05:05:38Z</time>
            </trkpt>
            <trkpt lon="99.666049" lat="12.904361">
                <ele>79.450000</ele>
                <time>2015-01-25T05:05:50Z</time>
            </trkpt>
            <trkpt lon="99.665740" lat="12.904479">
                <ele>76.080000</ele>
                <time>2015-01-25T05:06:01Z</time>
            </trkpt>
            <trkpt lon="99.665518" lat="12.904724">
                <ele>76.080000</ele>
                <time>2015-01-25T05:06:11Z</time>
            </trkpt>
            <trkpt lon="99.665355" lat="12.904855">
                <ele>78.000000</ele>
                <time>2015-01-25T05:06:21Z</time>
            </trkpt>
            <trkpt lon="99.664997" lat="12.905050">
                <ele>81.370000</ele>
                <time>2015-01-25T05:06:35Z</time>
            </trkpt>
            <trkpt lon="99.664514" lat="12.905336">
                <ele>81.370000</ele>
                <time>2015-01-25T05:06:51Z</time>
            </trkpt>
            <trkpt lon="99.664326" lat="12.905479">
                <ele>81.850000</ele>
                <time>2015-01-25T05:07:03Z</time>
            </trkpt>
            <trkpt lon="99.664114" lat="12.905591">
                <ele>82.810000</ele>
                <time>2015-01-25T05:07:16Z</time>
            </trkpt>
            <trkpt lon="99.663917" lat="12.905797">
                <ele>81.850000</ele>
                <time>2015-01-25T05:07:27Z</time>
            </trkpt>
            <trkpt lon="99.663777" lat="12.906057">
                <ele>84.730000</ele>
                <time>2015-01-25T05:07:39Z</time>
            </trkpt>
            <trkpt lon="99.663739" lat="12.906139">
                <ele>85.210000</ele>
                <time>2015-01-25T05:07:43Z</time>
            </trkpt>
            <trkpt lon="99.663751" lat="12.906259">
                <ele>86.660000</ele>
                <time>2015-01-25T05:07:51Z</time>
            </trkpt>
            <trkpt lon="99.663807" lat="12.906479">
                <ele>89.540000</ele>
                <time>2015-01-25T05:08:05Z</time>
            </trkpt>
            <trkpt lon="99.663831" lat="12.906615">
                <ele>90.020000</ele>
                <time>2015-01-25T05:08:14Z</time>
            </trkpt>
            <trkpt lon="99.663797" lat="12.906673">
                <ele>90.980000</ele>
                <time>2015-01-25T05:08:19Z</time>
            </trkpt>
            <trkpt lon="99.663554" lat="12.906812">
                <ele>92.420000</ele>
                <time>2015-01-25T05:08:35Z</time>
            </trkpt>
            <trkpt lon="99.663365" lat="12.906793">
                <ele>91.940000</ele>
                <time>2015-01-25T05:08:45Z</time>
            </trkpt>
            <trkpt lon="99.663221" lat="12.906690">
                <ele>90.980000</ele>
                <time>2015-01-25T05:08:51Z</time>
            </trkpt>
            <trkpt lon="99.662858" lat="12.906580">
                <ele>90.500000</ele>
                <time>2015-01-25T05:09:02Z</time>
            </trkpt>
            <trkpt lon="99.662499" lat="12.906464">
                <ele>90.020000</ele>
                <time>2015-01-25T05:09:14Z</time>
            </trkpt>
            <trkpt lon="99.662279" lat="12.906409">
                <ele>88.580000</ele>
                <time>2015-01-25T05:09:22Z</time>
            </trkpt>
            <trkpt lon="99.662255" lat="12.906432">
                <ele>88.100000</ele>
                <time>2015-01-25T05:09:23Z</time>
            </trkpt>
            <trkpt lon="99.662234" lat="12.906464">
                <ele>87.620000</ele>
                <time>2015-01-25T05:09:24Z</time>
            </trkpt>
            <trkpt lon="99.662216" lat="12.906506">
                <ele>87.620000</ele>
                <time>2015-01-25T05:09:25Z</time>
            </trkpt>
            <trkpt lon="99.662200" lat="12.906554">
                <ele>87.140000</ele>
                <time>2015-01-25T05:09:26Z</time>
            </trkpt>
            <trkpt lon="99.662185" lat="12.906602">
                <ele>86.660000</ele>
                <time>2015-01-25T05:09:27Z</time>
            </trkpt>
            <trkpt lon="99.662137" lat="12.906744">
                <ele>85.690000</ele>
                <time>2015-01-25T05:09:30Z</time>
            </trkpt>
            <trkpt lon="99.662108" lat="12.906786">
                <ele>85.210000</ele>
                <time>2015-01-25T05:09:31Z</time>
            </trkpt>
            <trkpt lon="99.662065" lat="12.906824">
                <ele>84.730000</ele>
                <time>2015-01-25T05:09:32Z</time>
            </trkpt>
            <trkpt lon="99.662006" lat="12.906850">
                <ele>84.250000</ele>
                <time>2015-01-25T05:09:33Z</time>
            </trkpt>
            <trkpt lon="99.661939" lat="12.906867">
                <ele>83.770000</ele>
                <time>2015-01-25T05:09:34Z</time>
            </trkpt>
            <trkpt lon="99.661868" lat="12.906877">
                <ele>83.290000</ele>
                <time>2015-01-25T05:09:35Z</time>
            </trkpt>
            <trkpt lon="99.661434" lat="12.906979">
                <ele>81.370000</ele>
                <time>2015-01-25T05:09:41Z</time>
            </trkpt>
            <trkpt lon="99.661370" lat="12.907012">
                <ele>81.370000</ele>
                <time>2015-01-25T05:09:42Z</time>
            </trkpt>
            <trkpt lon="99.661316" lat="12.907050">
                <ele>81.370000</ele>
                <time>2015-01-25T05:09:43Z</time>
            </trkpt>
            <trkpt lon="99.661275" lat="12.907093">
                <ele>81.370000</ele>
                <time>2015-01-25T05:09:44Z</time>
            </trkpt>
            <trkpt lon="99.661248" lat="12.907137">
                <ele>81.850000</ele>
                <time>2015-01-25T05:09:45Z</time>
            </trkpt>
            <trkpt lon="99.661231" lat="12.907177">
                <ele>81.850000</ele>
                <time>2015-01-25T05:09:46Z</time>
            </trkpt>
            <trkpt lon="99.661220" lat="12.907212">
                <ele>82.330000</ele>
                <time>2015-01-25T05:09:47Z</time>
            </trkpt>
            <trkpt lon="99.661132" lat="12.907593">
                <ele>84.250000</ele>
                <time>2015-01-25T05:10:00Z</time>
            </trkpt>
            <trkpt lon="99.660968" lat="12.908037">
                <ele>86.180000</ele>
                <time>2015-01-25T05:10:13Z</time>
            </trkpt>
            <trkpt lon="99.660817" lat="12.908511">
                <ele>87.140000</ele>
                <time>2015-01-25T05:10:28Z</time>
            </trkpt>
            <trkpt lon="99.660625" lat="12.908966">
                <ele>87.620000</ele>
                <time>2015-01-25T05:10:43Z</time>
            </trkpt>
            <trkpt lon="99.660414" lat="12.909487">
                <ele>88.580000</ele>
                <time>2015-01-25T05:11:00Z</time>
            </trkpt>
            <trkpt lon="99.660304" lat="12.909986">
                <ele>84.250000</ele>
                <time>2015-01-25T05:11:14Z</time>
            </trkpt>
            <trkpt lon="99.660069" lat="12.910555">
                <ele>78.000000</ele>
                <time>2015-01-25T05:11:27Z</time>
            </trkpt>
            <trkpt lon="99.659996" lat="12.910916">
                <ele>75.600000</ele>
                <time>2015-01-25T05:11:38Z</time>
            </trkpt>
            <trkpt lon="99.660025" lat="12.910950">
                <ele>75.600000</ele>
                <time>2015-01-25T05:11:39Z</time>
            </trkpt>
            <trkpt lon="99.660055" lat="12.910974">
                <ele>75.600000</ele>
                <time>2015-01-25T05:11:40Z</time>
            </trkpt>
            <trkpt lon="99.660096" lat="12.911000">
                <ele>75.600000</ele>
                <time>2015-01-25T05:11:41Z</time>
            </trkpt>
            <trkpt lon="99.660141" lat="12.911027">
                <ele>75.600000</ele>
                <time>2015-01-25T05:11:42Z</time>
            </trkpt>
            <trkpt lon="99.660903" lat="12.911362">
                <ele>73.680000</ele>
                <time>2015-01-25T05:11:56Z</time>
            </trkpt>
            <trkpt lon="99.661876" lat="12.911745">
                <ele>73.200000</ele>
                <time>2015-01-25T05:12:13Z</time>
            </trkpt>
            <trkpt lon="99.662660" lat="12.911966">
                <ele>74.160000</ele>
                <time>2015-01-25T05:12:28Z</time>
            </trkpt>
            <trkpt lon="99.663356" lat="12.912023">
                <ele>75.120000</ele>
                <time>2015-01-25T05:12:43Z</time>
            </trkpt>
            <trkpt lon="99.664122" lat="12.911982">
                <ele>77.040000</ele>
                <time>2015-01-25T05:12:59Z</time>
            </trkpt>
            <trkpt lon="99.664977" lat="12.911815">
                <ele>76.560000</ele>
                <time>2015-01-25T05:13:16Z</time>
            </trkpt>
            <trkpt lon="99.665565" lat="12.911609">
                <ele>76.560000</ele>
                <time>2015-01-25T05:13:29Z</time>
            </trkpt>
            <trkpt lon="99.666288" lat="12.911355">
                <ele>78.000000</ele>
                <time>2015-01-25T05:13:45Z</time>
            </trkpt>
            <trkpt lon="99.666836" lat="12.911191">
                <ele>78.970000</ele>
                <time>2015-01-25T05:13:57Z</time>
            </trkpt>
            <trkpt lon="99.667711" lat="12.911062">
                <ele>78.480000</ele>
                <time>2015-01-25T05:14:16Z</time>
            </trkpt>
            <trkpt lon="99.668519" lat="12.911172">
                <ele>79.450000</ele>
                <time>2015-01-25T05:14:34Z</time>
            </trkpt>
            <trkpt lon="99.669177" lat="12.911433">
                <ele>80.410000</ele>
                <time>2015-01-25T05:14:51Z</time>
            </trkpt>
            <trkpt lon="99.669521" lat="12.911547">
                <ele>80.410000</ele>
                <time>2015-01-25T05:14:59Z</time>
            </trkpt>
            <trkpt lon="99.670239" lat="12.911587">
                <ele>81.850000</ele>
                <time>2015-01-25T05:15:15Z</time>
            </trkpt>
            <trkpt lon="99.670707" lat="12.911466">
                <ele>83.770000</ele>
                <time>2015-01-25T05:15:29Z</time>
            </trkpt>
            <trkpt lon="99.671160" lat="12.911271">
                <ele>86.180000</ele>
                <time>2015-01-25T05:15:46Z</time>
            </trkpt>
            <trkpt lon="99.671549" lat="12.911013">
                <ele>89.060000</ele>
                <time>2015-01-25T05:16:02Z</time>
            </trkpt>
            <trkpt lon="99.671923" lat="12.910622">
                <ele>90.020000</ele>
                <time>2015-01-25T05:16:20Z</time>
            </trkpt>
            <trkpt lon="99.672269" lat="12.910055">
                <ele>90.980000</ele>
                <time>2015-01-25T05:16:38Z</time>
            </trkpt>
            <trkpt lon="99.672522" lat="12.909778">
                <ele>90.980000</ele>
                <time>2015-01-25T05:16:45Z</time>
            </trkpt>
            <trkpt lon="99.673222" lat="12.909415">
                <ele>89.540000</ele>
                <time>2015-01-25T05:16:58Z</time>
            </trkpt>
            <trkpt lon="99.674063" lat="12.909122">
                <ele>90.980000</ele>
                <time>2015-01-25T05:17:14Z</time>
            </trkpt>
            <trkpt lon="99.674748" lat="12.908929">
                <ele>92.900000</ele>
                <time>2015-01-25T05:17:30Z</time>
            </trkpt>
            <trkpt lon="99.675507" lat="12.908714">
                <ele>94.350000</ele>
                <time>2015-01-25T05:17:48Z</time>
            </trkpt>
            <trkpt lon="99.676110" lat="12.908523">
                <ele>96.270000</ele>
                <time>2015-01-25T05:18:06Z</time>
            </trkpt>
            <trkpt lon="99.676623" lat="12.908342">
                <ele>98.670000</ele>
                <time>2015-01-25T05:18:27Z</time>
            </trkpt>
            <trkpt lon="99.677092" lat="12.908172">
                <ele>101.080000</ele>
                <time>2015-01-25T05:18:45Z</time>
            </trkpt>
            <trkpt lon="99.677607" lat="12.908042">
                <ele>102.520000</ele>
                <time>2015-01-25T05:19:03Z</time>
            </trkpt>
            <trkpt lon="99.678106" lat="12.907975">
                <ele>104.920000</ele>
                <time>2015-01-25T05:19:19Z</time>
            </trkpt>
            <trkpt lon="99.678636" lat="12.907936">
                <ele>108.290000</ele>
                <time>2015-01-25T05:19:35Z</time>
            </trkpt>
            <trkpt lon="99.679152" lat="12.907945">
                <ele>110.690000</ele>
                <time>2015-01-25T05:19:53Z</time>
            </trkpt>
            <trkpt lon="99.679569" lat="12.908059">
                <ele>112.610000</ele>
                <time>2015-01-25T05:20:10Z</time>
            </trkpt>
            <trkpt lon="99.679950" lat="12.908208">
                <ele>114.050000</ele>
                <time>2015-01-25T05:20:28Z</time>
            </trkpt>
            <trkpt lon="99.680354" lat="12.908401">
                <ele>117.420000</ele>
                <time>2015-01-25T05:20:49Z</time>
            </trkpt>
            <trkpt lon="99.680868" lat="12.908675">
                <ele>118.860000</ele>
                <time>2015-01-25T05:21:10Z</time>
            </trkpt>
            <trkpt lon="99.681352" lat="12.908773">
                <ele>119.340000</ele>
                <time>2015-01-25T05:21:27Z</time>
            </trkpt>
            <trkpt lon="99.681605" lat="12.908438">
                <ele>119.820000</ele>
                <time>2015-01-25T05:21:38Z</time>
            </trkpt>
            <trkpt lon="99.681941" lat="12.907981">
                <ele>118.380000</ele>
                <time>2015-01-25T05:21:51Z</time>
            </trkpt>
            <trkpt lon="99.681986" lat="12.907945">
                <ele>118.380000</ele>
                <time>2015-01-25T05:21:52Z</time>
            </trkpt>
            <trkpt lon="99.682037" lat="12.907912">
                <ele>117.900000</ele>
                <time>2015-01-25T05:21:53Z</time>
            </trkpt>
            <trkpt lon="99.682146" lat="12.907854">
                <ele>116.940000</ele>
                <time>2015-01-25T05:21:55Z</time>
            </trkpt>
            <trkpt lon="99.682809" lat="12.907644">
                <ele>111.650000</ele>
                <time>2015-01-25T05:22:04Z</time>
            </trkpt>
            <trkpt lon="99.683448" lat="12.907127">
                <ele>109.250000</ele>
                <time>2015-01-25T05:22:14Z</time>
            </trkpt>
            <trkpt lon="99.683626" lat="12.906823">
                <ele>108.770000</ele>
                <time>2015-01-25T05:22:19Z</time>
            </trkpt>
            <trkpt lon="99.683759" lat="12.906399">
                <ele>108.290000</ele>
                <time>2015-01-25T05:22:26Z</time>
            </trkpt>
            <trkpt lon="99.683742" lat="12.905871">
                <ele>107.810000</ele>
                <time>2015-01-25T05:22:35Z</time>
            </trkpt>
            <trkpt lon="99.683652" lat="12.905555">
                <ele>107.810000</ele>
                <time>2015-01-25T05:22:41Z</time>
            </trkpt>
            <trkpt lon="99.683630" lat="12.905513">
                <ele>107.810000</ele>
                <time>2015-01-25T05:22:42Z</time>
            </trkpt>
            <trkpt lon="99.683607" lat="12.905473">
                <ele>107.810000</ele>
                <time>2015-01-25T05:22:43Z</time>
            </trkpt>
            <trkpt lon="99.683196" lat="12.904809">
                <ele>107.810000</ele>
                <time>2015-01-25T05:22:58Z</time>
            </trkpt>
            <trkpt lon="99.683148" lat="12.904720">
                <ele>108.290000</ele>
                <time>2015-01-25T05:23:00Z</time>
            </trkpt>
            <trkpt lon="99.683120" lat="12.904681">
                <ele>108.290000</ele>
                <time>2015-01-25T05:23:01Z</time>
            </trkpt>
            <trkpt lon="99.683091" lat="12.904644">
                <ele>108.290000</ele>
                <time>2015-01-25T05:23:02Z</time>
            </trkpt>
            <trkpt lon="99.682997" lat="12.904530">
                <ele>108.770000</ele>
                <time>2015-01-25T05:23:05Z</time>
            </trkpt>
            <trkpt lon="99.682971" lat="12.904484">
                <ele>108.770000</ele>
                <time>2015-01-25T05:23:06Z</time>
            </trkpt>
            <trkpt lon="99.682954" lat="12.904435">
                <ele>108.770000</ele>
                <time>2015-01-25T05:23:07Z</time>
            </trkpt>
            <trkpt lon="99.682941" lat="12.904386">
                <ele>108.290000</ele>
                <time>2015-01-25T05:23:08Z</time>
            </trkpt>
            <trkpt lon="99.682932" lat="12.904336">
                <ele>108.290000</ele>
                <time>2015-01-25T05:23:09Z</time>
            </trkpt>
            <trkpt lon="99.682955" lat="12.903553">
                <ele>107.320000</ele>
                <time>2015-01-25T05:23:24Z</time>
            </trkpt>
            <trkpt lon="99.682986" lat="12.903111">
                <ele>107.320000</ele>
                <time>2015-01-25T05:23:32Z</time>
            </trkpt>
            <trkpt lon="99.682984" lat="12.903059">
                <ele>107.320000</ele>
                <time>2015-01-25T05:23:33Z</time>
            </trkpt>
            <trkpt lon="99.682982" lat="12.902894">
                <ele>107.810000</ele>
                <time>2015-01-25T05:23:36Z</time>
            </trkpt>
            <trkpt lon="99.682985" lat="12.902631">
                <ele>107.810000</ele>
                <time>2015-01-25T05:23:41Z</time>
            </trkpt>
            <trkpt lon="99.682717" lat="12.902457">
                <ele>108.290000</ele>
                <time>2015-01-25T05:23:49Z</time>
            </trkpt>
            <trkpt lon="99.682309" lat="12.902105">
                <ele>112.130000</ele>
                <time>2015-01-25T05:24:02Z</time>
            </trkpt>
            <trkpt lon="99.681960" lat="12.901812">
                <ele>118.380000</ele>
                <time>2015-01-25T05:24:13Z</time>
            </trkpt>
            <trkpt lon="99.681778" lat="12.901296">
                <ele>117.420000</ele>
                <time>2015-01-25T05:24:26Z</time>
            </trkpt>
            <trkpt lon="99.681798" lat="12.900912">
                <ele>113.090000</ele>
                <time>2015-01-25T05:24:38Z</time>
            </trkpt>
            <trkpt lon="99.681840" lat="12.900851">
                <ele>110.690000</ele>
                <time>2015-01-25T05:24:48Z</time>
            </trkpt>
            <trkpt lon="99.681834" lat="12.900844">
                <ele>108.770000</ele>
                <time>2015-01-25T05:25:30Z</time>
            </trkpt>
            <trkpt lon="99.681844" lat="12.900837">
                <ele>105.400000</ele>
                <time>2015-01-25T05:26:18Z</time>
            </trkpt>
            <trkpt lon="99.681836" lat="12.900824">
                <ele>103.960000</ele>
                <time>2015-01-25T05:26:36Z</time>
            </trkpt>
        </trkseg>
    </trk>
</gpx>